<?xml version="1.0" encoding="UTF-8"?>
<gpx xmlns:xsi="http://www.w3.org/2001/XMLSchema-instance" xmlns="http://www.topografix.com/GPX/1/1" xsi:schemaLocation="http://www.topografix.com/GPX/1/1 http://www.topografix.com/GPX/1/1/gpx.xsd http://www.garmin.com/xmlschemas/GpxExtensions/v3 http://www.garmin.com/xmlschemas/GpxExtensionsv3.xsd http://www.garmin.com/xmlschemas/TrackPointExtension/v1 http://www.garmin.com/xmlschemas/TrackPointExtensionv1.xsd http://www.topografix.com/GPX/gpx_style/0/2 http://www.topografix.com/GPX/gpx_style/0/2/gpx_style.xsd" xmlns:gpxtpx="http://www.garmin.com/xmlschemas/TrackPointExtension/v1" xmlns:gpxx="http://www.garmin.com/xmlschemas/GpxExtensions/v3" xmlns:gpx_style="http://www.topografix.com/GPX/gpx_style/0/2" version="1.1" creator="http://thydzik.com">
<metadata>
    <name>3 ibilbidea_SAN ANDRES ERMITARI BIRA_20230222</name>
    <author>
        <name>gpx.studio</name>
        <link href="https://gpx.studio"></link>
    </author>
</metadata>
<trk>
    <name>3 ibilbidea_SAN ANDRES ERMITARI BIRA_20230222</name>
    <type>Cycling</type>
    <trkseg>
    <trkpt lat="43.16862385974196" lon="-2.641630170193952">
        <ele>110.9</ele>
        <time>2023-02-22T10:25:45.000Z</time>
    </trkpt>
    <trkpt lat="43.16849848651911" lon="-2.641651174665425">
        <ele>110.7</ele>
        <time>2023-02-22T10:26:01.924Z</time>
    </trkpt>
    <trkpt lat="43.16838840146852" lon="-2.641661692145891">
        <ele>110.5</ele>
        <time>2023-02-22T10:26:16.819Z</time>
    </trkpt>
    <trkpt lat="43.16824621036196" lon="-2.641686894491022">
        <ele>110.3</ele>
        <time>2023-02-22T10:26:37.267Z</time>
    </trkpt>
    <trkpt lat="43.16811319390552" lon="-2.641716286385341">
        <ele>110.3</ele>
        <time>2023-02-22T10:26:56.362Z</time>
    </trkpt>
    <trkpt lat="43.16800463792335" lon="-2.641726803003397">
        <ele>111.2</ele>
        <time>2023-02-22T10:27:11.765Z</time>
    </trkpt>
    <trkpt lat="43.16791524463004" lon="-2.641739409925603">
        <ele>111.9</ele>
        <time>2023-02-22T10:27:24.524Z</time>
    </trkpt>
    <trkpt lat="43.16779139992367" lon="-2.641756220503633">
        <ele>112.7</ele>
        <time>2023-02-22T10:27:41.961Z</time>
    </trkpt>
    <trkpt lat="43.16766449865887" lon="-2.641781417303899">
        <ele>113.5</ele>
        <time>2023-02-22T10:28:00.098Z</time>
    </trkpt>
    <trkpt lat="43.16754982953572" lon="-2.641808706412212">
        <ele>113.8</ele>
        <time>2023-02-22T10:28:16.450Z</time>
    </trkpt>
    <trkpt lat="43.16746420996596" lon="-2.641829697118415">
        <ele>114.0</ele>
        <time>2023-02-22T10:28:28.708Z</time>
    </trkpt>
    <trkpt lat="43.16744129012928" lon="-2.641917750834264">
        <ele>114.3</ele>
        <time>2023-02-22T10:28:38.446Z</time>
    </trkpt>
    <trkpt lat="43.16744743438838" lon="-2.642085456329565">
        <ele>114.9</ele>
        <time>2023-02-22T10:28:56.043Z</time>
    </trkpt>
    <trkpt lat="43.16745051892649" lon="-2.642244777395505">
        <ele>115.3</ele>
        <time>2023-02-22T10:29:12.570Z</time>
    </trkpt>
    <trkpt lat="43.16746584338316" lon="-2.642454406942056">
        <ele>116.0</ele>
        <time>2023-02-22T10:29:34.347Z</time>
    </trkpt>
    <trkpt lat="43.16748268888056" lon="-2.642617916684032">
        <ele>116.5</ele>
        <time>2023-02-22T10:29:51.399Z</time>
    </trkpt>
    <trkpt lat="43.16750105970753" lon="-2.642760462662753">
        <ele>116.9</ele>
        <time>2023-02-22T10:30:06.324Z</time>
    </trkpt>
    <trkpt lat="43.16754084382755" lon="-2.642951218505125">
        <ele>117.4</ele>
        <time>2023-02-22T10:30:26.690Z</time>
    </trkpt>
    <trkpt lat="43.16759132359214" lon="-2.643097948148371">
        <ele>117.6</ele>
        <time>2023-02-22T10:30:43.473Z</time>
    </trkpt>
    <trkpt lat="43.16762650248549" lon="-2.643175502965789">
        <ele>117.4</ele>
        <time>2023-02-22T10:30:52.822Z</time>
    </trkpt>
    <trkpt lat="43.16766243773031" lon="-2.643255342937942">
        <ele>117.4</ele>
        <time>2023-02-22T10:31:02.317Z</time>
    </trkpt>
    <trkpt lat="43.16767" lon="-2.6434">
        <ele>117.5</ele>
        <time>2023-02-22T10:31:16.922Z</time>
    </trkpt>
    <trkpt lat="43.1676" lon="-2.64363">
        <ele>116.3</ele>
        <time>2023-02-22T10:31:41.851Z</time>
    </trkpt>
    <trkpt lat="43.16758" lon="-2.6438">
        <ele>115.3</ele>
        <time>2023-02-22T10:31:59.017Z</time>
    </trkpt>
    <trkpt lat="43.16759" lon="-2.64407">
        <ele>114.6</ele>
        <time>2023-02-22T10:32:26.144Z</time>
    </trkpt>
    <trkpt lat="43.16759" lon="-2.64417">
        <ele>114.7</ele>
        <time>2023-02-22T10:32:36.095Z</time>
    </trkpt>
    <trkpt lat="43.16757" lon="-2.64432">
        <ele>115.3</ele>
        <time>2023-02-22T10:32:51.130Z</time>
    </trkpt>
    <trkpt lat="43.16756" lon="-2.64434">
        <ele>115.4</ele>
        <time>2023-02-22T10:32:53.892Z</time>
    </trkpt>
    <trkpt lat="43.16755" lon="-2.64448">
        <ele>116.1</ele>
        <time>2023-02-22T10:33:10.121Z</time>
    </trkpt>
    <trkpt lat="43.16755" lon="-2.64451">
        <ele>116.3</ele>
        <time>2023-02-22T10:33:14.063Z</time>
    </trkpt>
    <trkpt lat="43.16754" lon="-2.64456">
        <ele>116.7</ele>
        <time>2023-02-22T10:33:20.505Z</time>
    </trkpt>
    <trkpt lat="43.16753" lon="-2.6446">
        <ele>117.0</ele>
        <time>2023-02-22T10:33:25.528Z</time>
    </trkpt>
    <trkpt lat="43.1675" lon="-2.6448">
        <ele>118.5</ele>
        <time>2023-02-22T10:33:48.924Z</time>
    </trkpt>
    <trkpt lat="43.16748" lon="-2.64491">
        <ele>119.1</ele>
        <time>2023-02-22T10:34:03.157Z</time>
    </trkpt>
    <trkpt lat="43.16745" lon="-2.64504">
        <ele>120.0</ele>
        <time>2023-02-22T10:34:21.877Z</time>
    </trkpt>
    <trkpt lat="43.1674" lon="-2.64527">
        <ele>122.4</ele>
        <time>2023-02-22T10:34:54.633Z</time>
    </trkpt>
    <trkpt lat="43.16736" lon="-2.64552">
        <ele>124.8</ele>
        <time>2023-02-22T10:35:33.017Z</time>
    </trkpt>
    <trkpt lat="43.16736" lon="-2.645516">
        <ele>124.8</ele>
        <time>2023-02-22T10:35:33.568Z</time>
    </trkpt>
    <trkpt lat="43.16718" lon="-2.64552">
        <ele>124.9</ele>
        <time>2023-02-22T10:36:11.740Z</time>
    </trkpt>
    <trkpt lat="43.16706" lon="-2.64552">
        <ele>125.9</ele>
        <time>2023-02-22T10:36:36.745Z</time>
    </trkpt>
    <trkpt lat="43.16674" lon="-2.64553">
        <ele>132.2</ele>
        <time>2023-02-22T10:37:50.503Z</time>
    </trkpt>
    <trkpt lat="43.16664" lon="-2.64554">
        <ele>135.4</ele>
        <time>2023-02-22T10:38:14.791Z</time>
    </trkpt>
    <trkpt lat="43.1666" lon="-2.64554">
        <ele>136.9</ele>
        <time>2023-02-22T10:38:25.828Z</time>
    </trkpt>
    <trkpt lat="43.16649" lon="-2.64555">
        <ele>141.1</ele>
        <time>2023-02-22T10:39:00.327Z</time>
    </trkpt>
    <trkpt lat="43.16633" lon="-2.64559">
        <ele>145.0</ele>
        <time>2023-02-22T10:39:57.770Z</time>
    </trkpt>
    <trkpt lat="43.16629" lon="-2.64561">
        <ele>145.7</ele>
        <time>2023-02-22T10:40:09.738Z</time>
    </trkpt>
    <trkpt lat="43.1659" lon="-2.64573">
        <ele>150.6</ele>
        <time>2023-02-22T10:42:16.337Z</time>
    </trkpt>
    <trkpt lat="43.16565" lon="-2.6458">
        <ele>153.3</ele>
        <time>2023-02-22T10:43:46.714Z</time>
    </trkpt>
    <trkpt lat="43.16546" lon="-2.64587">
        <ele>155.1</ele>
        <time>2023-02-22T10:44:58.130Z</time>
    </trkpt>
    <trkpt lat="43.16539" lon="-2.6459">
        <ele>155.8</ele>
        <time>2023-02-22T10:45:27.982Z</time>
    </trkpt>
    <trkpt lat="43.16537" lon="-2.64591">
        <ele>155.9</ele>
        <time>2023-02-22T10:45:36.870Z</time>
    </trkpt>
    <trkpt lat="43.16522" lon="-2.64598">
        <ele>157.3</ele>
        <time>2023-02-22T10:46:30.312Z</time>
    </trkpt>
    <trkpt lat="43.16521" lon="-2.64599">
        <ele>157.3</ele>
        <time>2023-02-22T10:46:33.682Z</time>
    </trkpt>
    <trkpt lat="43.16513" lon="-2.64604">
        <ele>157.4</ele>
        <time>2023-02-22T10:46:54.491Z</time>
    </trkpt>
    <trkpt lat="43.16506" lon="-2.64609">
        <ele>158.3</ele>
        <time>2023-02-22T10:47:11.278Z</time>
    </trkpt>
    <trkpt lat="43.16497" lon="-2.64616">
        <ele>159.0</ele>
        <time>2023-02-22T10:47:32.671Z</time>
    </trkpt>
    <trkpt lat="43.16491" lon="-2.64621">
        <ele>159.5</ele>
        <time>2023-02-22T10:47:46.207Z</time>
    </trkpt>
    <trkpt lat="43.1649" lon="-2.64621">
        <ele>159.7</ele>
        <time>2023-02-22T10:47:48.005Z</time>
    </trkpt>
    <trkpt lat="43.16482" lon="-2.64624">
        <ele>161.0</ele>
        <time>2023-02-22T10:48:02.205Z</time>
    </trkpt>
    <trkpt lat="43.16473" lon="-2.64627">
        <ele>162.6</ele>
        <time>2023-02-22T10:48:17.848Z</time>
    </trkpt>
    <trkpt lat="43.16465" lon="-2.64629">
        <ele>164.2</ele>
        <time>2023-02-22T10:48:30.999Z</time>
    </trkpt>
    <trkpt lat="43.16463" lon="-2.6463">
        <ele>164.5</ele>
        <time>2023-02-22T10:48:34.320Z</time>
    </trkpt>
    <trkpt lat="43.16461" lon="-2.64631">
        <ele>164.9</ele>
        <time>2023-02-22T10:48:37.965Z</time>
    </trkpt>
    <trkpt lat="43.16459" lon="-2.64633">
        <ele>165.1</ele>
        <time>2023-02-22T10:48:42.012Z</time>
    </trkpt>
    <trkpt lat="43.16458" lon="-2.64635">
        <ele>165.2</ele>
        <time>2023-02-22T10:48:44.797Z</time>
    </trkpt>
    <trkpt lat="43.16457" lon="-2.64637">
        <ele>165.3</ele>
        <time>2023-02-22T10:48:47.497Z</time>
    </trkpt>
    <trkpt lat="43.16456" lon="-2.64642">
        <ele>165.4</ele>
        <time>2023-02-22T10:48:53.566Z</time>
    </trkpt>
    <trkpt lat="43.16455" lon="-2.6465">
        <ele>165.3</ele>
        <time>2023-02-22T10:49:03.151Z</time>
    </trkpt>
    <trkpt lat="43.16456" lon="-2.64661">
        <ele>164.6</ele>
        <time>2023-02-22T10:49:15.811Z</time>
    </trkpt>
    <trkpt lat="43.16456" lon="-2.64675">
        <ele>164.1</ele>
        <time>2023-02-22T10:49:31.339Z</time>
    </trkpt>
    <trkpt lat="43.16455" lon="-2.64686">
        <ele>164.0</ele>
        <time>2023-02-22T10:49:43.945Z</time>
    </trkpt>
    <trkpt lat="43.16454" lon="-2.64703">
        <ele>163.7</ele>
        <time>2023-02-22T10:50:02.941Z</time>
    </trkpt>
    <trkpt lat="43.16454" lon="-2.64718">
        <ele>163.3</ele>
        <time>2023-02-22T10:50:19.359Z</time>
    </trkpt>
    <trkpt lat="43.16453" lon="-2.64726">
        <ele>163.4</ele>
        <time>2023-02-22T10:50:28.184Z</time>
    </trkpt>
    <trkpt lat="43.16454" lon="-2.64732">
        <ele>163.1</ele>
        <time>2023-02-22T10:50:34.736Z</time>
    </trkpt>
    <trkpt lat="43.16454" lon="-2.64735">
        <ele>163.2</ele>
        <time>2023-02-22T10:50:38.308Z</time>
    </trkpt>
    <trkpt lat="43.16455" lon="-2.6474">
        <ele>163.1</ele>
        <time>2023-02-22T10:50:44.256Z</time>
    </trkpt>
    <trkpt lat="43.16457" lon="-2.64748">
        <ele>163.0</ele>
        <time>2023-02-22T10:50:53.738Z</time>
    </trkpt>
    <trkpt lat="43.16462" lon="-2.64763">
        <ele>163.1</ele>
        <time>2023-02-22T10:51:11.500Z</time>
    </trkpt>
    <trkpt lat="43.16463" lon="-2.64772">
        <ele>163.3</ele>
        <time>2023-02-22T10:51:21.124Z</time>
    </trkpt>
    <trkpt lat="43.16463" lon="-2.64782">
        <ele>163.6</ele>
        <time>2023-02-22T10:51:31.590Z</time>
    </trkpt>
    <trkpt lat="43.16463" lon="-2.64783">
        <ele>163.7</ele>
        <time>2023-02-22T10:51:32.620Z</time>
    </trkpt>
    <trkpt lat="43.16462" lon="-2.64792">
        <ele>164.0</ele>
        <time>2023-02-22T10:51:42.087Z</time>
    </trkpt>
    <trkpt lat="43.1646" lon="-2.64806">
        <ele>164.2</ele>
        <time>2023-02-22T10:51:56.716Z</time>
    </trkpt>
    <trkpt lat="43.16456" lon="-2.64825">
        <ele>164.0</ele>
        <time>2023-02-22T10:52:17.099Z</time>
    </trkpt>
    <trkpt lat="43.16455" lon="-2.6483">
        <ele>164.1</ele>
        <time>2023-02-22T10:52:23.007Z</time>
    </trkpt>
    <trkpt lat="43.1645" lon="-2.64853">
        <ele>164.0</ele>
        <time>2023-02-22T10:52:50.147Z</time>
    </trkpt>
    <trkpt lat="43.16449" lon="-2.64856">
        <ele>164.2</ele>
        <time>2023-02-22T10:52:53.981Z</time>
    </trkpt>
    <trkpt lat="43.16442" lon="-2.64879">
        <ele>165.7</ele>
        <time>2023-02-22T10:53:23.083Z</time>
    </trkpt>
    <trkpt lat="43.16439" lon="-2.64887">
        <ele>166.4</ele>
        <time>2023-02-22T10:53:33.479Z</time>
    </trkpt>
    <trkpt lat="43.16433" lon="-2.64897">
        <ele>168.0</ele>
        <time>2023-02-22T10:53:48.165Z</time>
    </trkpt>
    <trkpt lat="43.16428" lon="-2.64904">
        <ele>169.2</ele>
        <time>2023-02-22T10:54:00.390Z</time>
    </trkpt>
    <trkpt lat="43.16411" lon="-2.64923">
        <ele>172.4</ele>
        <time>2023-02-22T10:54:37.380Z</time>
    </trkpt>
    <trkpt lat="43.16406" lon="-2.64929">
        <ele>172.8</ele>
        <time>2023-02-22T10:54:49.028Z</time>
    </trkpt>
    <trkpt lat="43.16393" lon="-2.64946">
        <ele>172.4</ele>
        <time>2023-02-22T10:55:20.492Z</time>
    </trkpt>
    <trkpt lat="43.1638" lon="-2.64963">
        <ele>170.7</ele>
        <time>2023-02-22T10:55:51.685Z</time>
    </trkpt>
    <trkpt lat="43.16364" lon="-2.64983">
        <ele>170.0</ele>
        <time>2023-02-22T10:56:27.993Z</time>
    </trkpt>
    <trkpt lat="43.16361" lon="-2.64985">
        <ele>170.0</ele>
        <time>2023-02-22T10:56:33.356Z</time>
    </trkpt>
    <trkpt lat="43.16358" lon="-2.64991">
        <ele>169.9</ele>
        <time>2023-02-22T10:56:41.656Z</time>
    </trkpt>
    <trkpt lat="43.16354" lon="-2.64997">
        <ele>170.4</ele>
        <time>2023-02-22T10:56:50.037Z</time>
    </trkpt>
    <trkpt lat="43.16344" lon="-2.65017">
        <ele>171.1</ele>
        <time>2023-02-22T10:57:12.308Z</time>
    </trkpt>
    <trkpt lat="43.16341" lon="-2.65022">
        <ele>171.1</ele>
        <time>2023-02-22T10:57:16.957Z</time>
    </trkpt>
    <trkpt lat="43.16339" lon="-2.65026">
        <ele>171.1</ele>
        <time>2023-02-22T10:57:20.572Z</time>
    </trkpt>
    <trkpt lat="43.16336" lon="-2.65029">
        <ele>171.1</ele>
        <time>2023-02-22T10:57:24.493Z</time>
    </trkpt>
    <trkpt lat="43.16333" lon="-2.65032">
        <ele>171.2</ele>
        <time>2023-02-22T10:57:27.721Z</time>
    </trkpt>
    <trkpt lat="43.16331" lon="-2.65034">
        <ele>171.2</ele>
        <time>2023-02-22T10:57:29.986Z</time>
    </trkpt>
    <trkpt lat="43.16329" lon="-2.65036">
        <ele>171.1</ele>
        <time>2023-02-22T10:57:32.169Z</time>
    </trkpt>
    <trkpt lat="43.16326" lon="-2.65038">
        <ele>171.1</ele>
        <time>2023-02-22T10:57:34.927Z</time>
    </trkpt>
    <trkpt lat="43.16315" lon="-2.65042">
        <ele>170.6</ele>
        <time>2023-02-22T10:57:44.355Z</time>
    </trkpt>
    <trkpt lat="43.16314" lon="-2.65042">
        <ele>170.6</ele>
        <time>2023-02-22T10:57:45.231Z</time>
    </trkpt>
    <trkpt lat="43.16296" lon="-2.65045">
        <ele>168.7</ele>
        <time>2023-02-22T10:58:01.607Z</time>
    </trkpt>
    <trkpt lat="43.16273" lon="-2.65049">
        <ele>166.8</ele>
        <time>2023-02-22T10:58:22.552Z</time>
    </trkpt>
    <trkpt lat="43.16269" lon="-2.6505">
        <ele>166.4</ele>
        <time>2023-02-22T10:58:26.246Z</time>
    </trkpt>
    <trkpt lat="43.16267" lon="-2.65051">
        <ele>166.2</ele>
        <time>2023-02-22T10:58:28.271Z</time>
    </trkpt>
    <trkpt lat="43.16264" lon="-2.65053">
        <ele>165.8</ele>
        <time>2023-02-22T10:58:31.580Z</time>
    </trkpt>
    <trkpt lat="43.16262" lon="-2.65055">
        <ele>165.6</ele>
        <time>2023-02-22T10:58:33.766Z</time>
    </trkpt>
    <trkpt lat="43.16259" lon="-2.65059">
        <ele>165.1</ele>
        <time>2023-02-22T10:58:37.323Z</time>
    </trkpt>
    <trkpt lat="43.16256" lon="-2.65062">
        <ele>164.9</ele>
        <time>2023-02-22T10:58:40.653Z</time>
    </trkpt>
    <trkpt lat="43.16251" lon="-2.65072">
        <ele>164.0</ele>
        <time>2023-02-22T10:58:48.183Z</time>
    </trkpt>
    <trkpt lat="43.1625" lon="-2.65074">
        <ele>163.7</ele>
        <time>2023-02-22T10:58:49.771Z</time>
    </trkpt>
    <trkpt lat="43.16246" lon="-2.65085">
        <ele>162.3</ele>
        <time>2023-02-22T10:58:57.241Z</time>
    </trkpt>
    <trkpt lat="43.16242" lon="-2.65096">
        <ele>161.6</ele>
        <time>2023-02-22T10:59:04.963Z</time>
    </trkpt>
    <trkpt lat="43.16241" lon="-2.65099">
        <ele>161.6</ele>
        <time>2023-02-22T10:59:07.146Z</time>
    </trkpt>
    <trkpt lat="43.16233" lon="-2.65112">
        <ele>161.7</ele>
        <time>2023-02-22T10:59:18.499Z</time>
    </trkpt>
    <trkpt lat="43.16224" lon="-2.65123">
        <ele>161.6</ele>
        <time>2023-02-22T10:59:30.025Z</time>
    </trkpt>
    <trkpt lat="43.16216" lon="-2.65129">
        <ele>162.2</ele>
        <time>2023-02-22T10:59:39.159Z</time>
    </trkpt>
    <trkpt lat="43.16212" lon="-2.65132">
        <ele>162.7</ele>
        <time>2023-02-22T10:59:43.977Z</time>
    </trkpt>
    <trkpt lat="43.162" lon="-2.6514">
        <ele>163.7</ele>
        <time>2023-02-22T10:59:58.492Z</time>
    </trkpt>
    <trkpt lat="43.16199" lon="-2.6514">
        <ele>163.6</ele>
        <time>2023-02-22T10:59:59.607Z</time>
    </trkpt>
    <trkpt lat="43.16197" lon="-2.65142">
        <ele>163.8</ele>
        <time>2023-02-22T11:00:02.366Z</time>
    </trkpt>
    <trkpt lat="43.16183" lon="-2.65147">
        <ele>165.1</ele>
        <time>2023-02-22T11:00:19.045Z</time>
    </trkpt>
    <trkpt lat="43.16164" lon="-2.65154">
        <ele>166.7</ele>
        <time>2023-02-22T11:00:42.420Z</time>
    </trkpt>
    <trkpt lat="43.16153" lon="-2.6516">
        <ele>167.8</ele>
        <time>2023-02-22T11:00:57.051Z</time>
    </trkpt>
    <trkpt lat="43.16149" lon="-2.65163">
        <ele>168.1</ele>
        <time>2023-02-22T11:01:03.351Z</time>
    </trkpt>
    <trkpt lat="43.1614" lon="-2.65169">
        <ele>168.4</ele>
        <time>2023-02-22T11:01:17.325Z</time>
    </trkpt>
    <trkpt lat="43.16132" lon="-2.65176">
        <ele>168.3</ele>
        <time>2023-02-22T11:01:31.398Z</time>
    </trkpt>
    <trkpt lat="43.1612" lon="-2.65188">
        <ele>168.2</ele>
        <time>2023-02-22T11:01:55.281Z</time>
    </trkpt>
    <trkpt lat="43.16118" lon="-2.65189">
        <ele>168.3</ele>
        <time>2023-02-22T11:01:59.142Z</time>
    </trkpt>
    <trkpt lat="43.16113" lon="-2.65195">
        <ele>168.7</ele>
        <time>2023-02-22T11:02:12.573Z</time>
    </trkpt>
    <trkpt lat="43.16107" lon="-2.65206">
        <ele>169.1</ele>
        <time>2023-02-22T11:02:31.279Z</time>
    </trkpt>
    <trkpt lat="43.16095" lon="-2.65226">
        <ele>169.8</ele>
        <time>2023-02-22T11:03:07.271Z</time>
    </trkpt>
    <trkpt lat="43.16084" lon="-2.65246">
        <ele>171.2</ele>
        <time>2023-02-22T11:03:41.501Z</time>
    </trkpt>
    <trkpt lat="43.16073" lon="-2.65265">
        <ele>173.1</ele>
        <time>2023-02-22T11:04:14.794Z</time>
    </trkpt>
    <trkpt lat="43.16069" lon="-2.65272">
        <ele>174.0</ele>
        <time>2023-02-22T11:04:26.859Z</time>
    </trkpt>
    <trkpt lat="43.160692" lon="-2.65272">
        <ele>174.0</ele>
        <time>2023-02-22T11:04:27.207Z</time>
    </trkpt>
    <trkpt lat="43.16064" lon="-2.65282">
        <ele>175.2</ele>
        <time>2023-02-22T11:04:42.104Z</time>
    </trkpt>
    <trkpt lat="43.16062" lon="-2.65285">
        <ele>175.5</ele>
        <time>2023-02-22T11:04:47.520Z</time>
    </trkpt>
    <trkpt lat="43.16051" lon="-2.65304">
        <ele>175.8</ele>
        <time>2023-02-22T11:05:22.806Z</time>
    </trkpt>
    <trkpt lat="43.16046" lon="-2.65312">
        <ele>175.9</ele>
        <time>2023-02-22T11:05:39.051Z</time>
    </trkpt>
    <trkpt lat="43.16042" lon="-2.65318">
        <ele>176.1</ele>
        <time>2023-02-22T11:05:50.515Z</time>
    </trkpt>
    <trkpt lat="43.16034" lon="-2.65329">
        <ele>177.6</ele>
        <time>2023-02-22T11:06:14.087Z</time>
    </trkpt>
    <trkpt lat="43.16021" lon="-2.65346">
        <ele>180.7</ele>
        <time>2023-02-22T11:06:49.252Z</time>
    </trkpt>
    <trkpt lat="43.15999" lon="-2.65373">
        <ele>185.1</ele>
        <time>2023-02-22T11:07:54.269Z</time>
    </trkpt>
    <trkpt lat="43.15986" lon="-2.6539">
        <ele>185.8</ele>
        <time>2023-02-22T11:08:31.985Z</time>
    </trkpt>
    <trkpt lat="43.15973" lon="-2.65406">
        <ele>186.3</ele>
        <time>2023-02-22T11:09:13.476Z</time>
    </trkpt>
    <trkpt lat="43.15953" lon="-2.65431">
        <ele>188.4</ele>
        <time>2023-02-22T11:10:23.333Z</time>
    </trkpt>
    <trkpt lat="43.15947" lon="-2.6544">
        <ele>190.2</ele>
        <time>2023-02-22T11:10:47.667Z</time>
    </trkpt>
    <trkpt lat="43.15933" lon="-2.65456">
        <ele>192.3</ele>
        <time>2023-02-22T11:11:30.478Z</time>
    </trkpt>
    <trkpt lat="43.15906" lon="-2.65488">
        <ele>198.4</ele>
        <time>2023-02-22T11:12:59.862Z</time>
    </trkpt>
    <trkpt lat="43.15889" lon="-2.65504">
        <ele>199.7</ele>
        <time>2023-02-22T11:13:56.598Z</time>
    </trkpt>
    <trkpt lat="43.1588" lon="-2.65513">
        <ele>200.0</ele>
        <time>2023-02-22T11:14:27.460Z</time>
    </trkpt>
    <trkpt lat="43.15849" lon="-2.65542">
        <ele>200.7</ele>
        <time>2023-02-22T11:16:18.891Z</time>
    </trkpt>
    <trkpt lat="43.15845" lon="-2.65546">
        <ele>200.9</ele>
        <time>2023-02-22T11:16:32.487Z</time>
    </trkpt>
    <trkpt lat="43.15842" lon="-2.65548">
        <ele>201.2</ele>
        <time>2023-02-22T11:16:40.770Z</time>
    </trkpt>
    <trkpt lat="43.15831" lon="-2.65561">
        <ele>204.2</ele>
        <time>2023-02-22T11:17:14.930Z</time>
    </trkpt>
    <trkpt lat="43.15829" lon="-2.65563">
        <ele>204.6</ele>
        <time>2023-02-22T11:17:20.125Z</time>
    </trkpt>
    <trkpt lat="43.15818" lon="-2.65579">
        <ele>206.7</ele>
        <time>2023-02-22T11:17:52.858Z</time>
    </trkpt>
    <trkpt lat="43.15806" lon="-2.65597">
        <ele>209.0</ele>
        <time>2023-02-22T11:18:31.088Z</time>
    </trkpt>
    <trkpt lat="43.15806" lon="-2.65598">
        <ele>209.2</ele>
        <time>2023-02-22T11:18:32.516Z</time>
    </trkpt>
    <trkpt lat="43.15804" lon="-2.65599">
        <ele>209.1</ele>
        <time>2023-02-22T11:18:36.392Z</time>
    </trkpt>
    <trkpt lat="43.15801" lon="-2.65601">
        <ele>209.0</ele>
        <time>2023-02-22T11:18:42.125Z</time>
    </trkpt>
    <trkpt lat="43.15799" lon="-2.65602">
        <ele>208.8</ele>
        <time>2023-02-22T11:18:45.616Z</time>
    </trkpt>
    <trkpt lat="43.15794" lon="-2.65602">
        <ele>208.0</ele>
        <time>2023-02-22T11:18:54.444Z</time>
    </trkpt>
    <trkpt lat="43.15789" lon="-2.65603">
        <ele>207.6</ele>
        <time>2023-02-22T11:19:02.914Z</time>
    </trkpt>
    <trkpt lat="43.15771" lon="-2.65604">
        <ele>207.2</ele>
        <time>2023-02-22T11:19:33.426Z</time>
    </trkpt>
    <trkpt lat="43.15768" lon="-2.65606">
        <ele>207.2</ele>
        <time>2023-02-22T11:19:38.832Z</time>
    </trkpt>
    <trkpt lat="43.15765" lon="-2.65607">
        <ele>207.5</ele>
        <time>2023-02-22T11:19:44.346Z</time>
    </trkpt>
    <trkpt lat="43.15762" lon="-2.6561">
        <ele>208.0</ele>
        <time>2023-02-22T11:19:51.517Z</time>
    </trkpt>
    <trkpt lat="43.15753" lon="-2.65618">
        <ele>209.8</ele>
        <time>2023-02-22T11:20:13.817Z</time>
    </trkpt>
    <trkpt lat="43.15748" lon="-2.65622">
        <ele>210.6</ele>
        <time>2023-02-22T11:20:26.709Z</time>
    </trkpt>
    <trkpt lat="43.15739" lon="-2.65627">
        <ele>212.2</ele>
        <time>2023-02-22T11:20:46.257Z</time>
    </trkpt>
    <trkpt lat="43.157393" lon="-2.656267">
        <ele>212.1</ele>
        <time>2023-02-22T11:20:46.947Z</time>
    </trkpt>
    <trkpt lat="43.15737" lon="-2.65638">
        <ele>213.1</ele>
        <time>2023-02-22T11:21:04.112Z</time>
    </trkpt>
    <trkpt lat="43.15732" lon="-2.65652">
        <ele>215.7</ele>
        <time>2023-02-22T11:21:30.235Z</time>
    </trkpt>
    <trkpt lat="43.15731" lon="-2.65654">
        <ele>216.2</ele>
        <time>2023-02-22T11:21:34.870Z</time>
    </trkpt>
    <trkpt lat="43.15724" lon="-2.65671">
        <ele>219.7</ele>
        <time>2023-02-22T11:22:17.280Z</time>
    </trkpt>
    <trkpt lat="43.15713" lon="-2.65697">
        <ele>222.3</ele>
        <time>2023-02-22T11:23:20.416Z</time>
    </trkpt>
    <trkpt lat="43.15705" lon="-2.65719">
        <ele>224.4</ele>
        <time>2023-02-22T11:24:18.885Z</time>
    </trkpt>
    <trkpt lat="43.15704" lon="-2.65719">
        <ele>224.4</ele>
        <time>2023-02-22T11:24:21.545Z</time>
    </trkpt>
    <trkpt lat="43.15696" lon="-2.65741">
        <ele>226.9</ele>
        <time>2023-02-22T11:25:08.605Z</time>
    </trkpt>
    <trkpt lat="43.15692" lon="-2.65752">
        <ele>228.6</ele>
        <time>2023-02-22T11:25:30.001Z</time>
    </trkpt>
    <trkpt lat="43.15691" lon="-2.65753">
        <ele>228.8</ele>
        <time>2023-02-22T11:25:32.626Z</time>
    </trkpt>
    <trkpt lat="43.15691" lon="-2.65755">
        <ele>229.0</ele>
        <time>2023-02-22T11:25:35.454Z</time>
    </trkpt>
    <trkpt lat="43.15691" lon="-2.65757">
        <ele>229.3</ele>
        <time>2023-02-22T11:25:38.090Z</time>
    </trkpt>
    <trkpt lat="43.1569" lon="-2.65759">
        <ele>229.6</ele>
        <time>2023-02-22T11:25:41.110Z</time>
    </trkpt>
    <trkpt lat="43.15689" lon="-2.65762">
        <ele>230.1</ele>
        <time>2023-02-22T11:25:45.631Z</time>
    </trkpt>
    <trkpt lat="43.15689" lon="-2.65763">
        <ele>230.3</ele>
        <time>2023-02-22T11:25:46.916Z</time>
    </trkpt>
    <trkpt lat="43.15689" lon="-2.65764">
        <ele>230.4</ele>
        <time>2023-02-22T11:25:48.392Z</time>
    </trkpt>
    <trkpt lat="43.15688" lon="-2.65765">
        <ele>230.5</ele>
        <time>2023-02-22T11:25:50.705Z</time>
    </trkpt>
    <trkpt lat="43.15688" lon="-2.65766">
        <ele>230.7</ele>
        <time>2023-02-22T11:25:51.985Z</time>
    </trkpt>
    <trkpt lat="43.15687" lon="-2.65766">
        <ele>230.7</ele>
        <time>2023-02-22T11:25:53.653Z</time>
    </trkpt>
    <trkpt lat="43.15686" lon="-2.65767">
        <ele>230.8</ele>
        <time>2023-02-22T11:25:55.634Z</time>
    </trkpt>
    <trkpt lat="43.15684" lon="-2.65768">
        <ele>231.0</ele>
        <time>2023-02-22T11:25:58.929Z</time>
    </trkpt>
    <trkpt lat="43.15682" lon="-2.6577">
        <ele>231.2</ele>
        <time>2023-02-22T11:26:02.656Z</time>
    </trkpt>
    <trkpt lat="43.1568" lon="-2.65773">
        <ele>231.7</ele>
        <time>2023-02-22T11:26:07.018Z</time>
    </trkpt>
    <trkpt lat="43.15678" lon="-2.65776">
        <ele>232.1</ele>
        <time>2023-02-22T11:26:11.297Z</time>
    </trkpt>
    <trkpt lat="43.15673" lon="-2.65788">
        <ele>234.1</ele>
        <time>2023-02-22T11:26:25.816Z</time>
    </trkpt>
    <trkpt lat="43.1567" lon="-2.65796">
        <ele>235.4</ele>
        <time>2023-02-22T11:26:35.119Z</time>
    </trkpt>
    <trkpt lat="43.15666" lon="-2.65804">
        <ele>236.6</ele>
        <time>2023-02-22T11:26:45.210Z</time>
    </trkpt>
    <trkpt lat="43.15664" lon="-2.65809">
        <ele>237.3</ele>
        <time>2023-02-22T11:26:51.060Z</time>
    </trkpt>
    <trkpt lat="43.15664" lon="-2.6581">
        <ele>237.5</ele>
        <time>2023-02-22T11:26:52.073Z</time>
    </trkpt>
    <trkpt lat="43.15664" lon="-2.65811">
        <ele>237.6</ele>
        <time>2023-02-22T11:26:53.076Z</time>
    </trkpt>
    <trkpt lat="43.15664" lon="-2.65812">
        <ele>237.8</ele>
        <time>2023-02-22T11:26:54.071Z</time>
    </trkpt>
    <trkpt lat="43.15664" lon="-2.65813">
        <ele>237.9</ele>
        <time>2023-02-22T11:26:55.059Z</time>
    </trkpt>
    <trkpt lat="43.15664" lon="-2.65814">
        <ele>238.1</ele>
        <time>2023-02-22T11:26:56.041Z</time>
    </trkpt>
    <trkpt lat="43.15665" lon="-2.65814">
        <ele>238.2</ele>
        <time>2023-02-22T11:26:57.381Z</time>
    </trkpt>
    <trkpt lat="43.15665" lon="-2.65815">
        <ele>238.3</ele>
        <time>2023-02-22T11:26:58.353Z</time>
    </trkpt>
    <trkpt lat="43.15666" lon="-2.65815">
        <ele>238.4</ele>
        <time>2023-02-22T11:26:59.682Z</time>
    </trkpt>
    <trkpt lat="43.15667" lon="-2.65815">
        <ele>238.5</ele>
        <time>2023-02-22T11:27:01.007Z</time>
    </trkpt>
    <trkpt lat="43.15668" lon="-2.65814">
        <ele>238.3</ele>
        <time>2023-02-22T11:27:02.643Z</time>
    </trkpt>
    <trkpt lat="43.15669" lon="-2.65812">
        <ele>238.0</ele>
        <time>2023-02-22T11:27:04.976Z</time>
    </trkpt>
    <trkpt lat="43.15671" lon="-2.6581">
        <ele>237.8</ele>
        <time>2023-02-22T11:27:08.236Z</time>
    </trkpt>
    <trkpt lat="43.15677" lon="-2.65799">
        <ele>236.3</ele>
        <time>2023-02-22T11:27:21.411Z</time>
    </trkpt>
    <trkpt lat="43.1568" lon="-2.65794">
        <ele>235.5</ele>
        <time>2023-02-22T11:27:27.612Z</time>
    </trkpt>
    <trkpt lat="43.15682" lon="-2.65792">
        <ele>235.3</ele>
        <time>2023-02-22T11:27:30.858Z</time>
    </trkpt>
    <trkpt lat="43.15683" lon="-2.6579">
        <ele>235.0</ele>
        <time>2023-02-22T11:27:33.175Z</time>
    </trkpt>
    <trkpt lat="43.15687" lon="-2.65788">
        <ele>234.8</ele>
        <time>2023-02-22T11:27:38.749Z</time>
    </trkpt>
    <trkpt lat="43.15697" lon="-2.65778">
        <ele>233.3</ele>
        <time>2023-02-22T11:27:54.966Z</time>
    </trkpt>
    <trkpt lat="43.15708" lon="-2.65766">
        <ele>233.1</ele>
        <time>2023-02-22T11:28:13.392Z</time>
    </trkpt>
    <trkpt lat="43.15715" lon="-2.65759">
        <ele>232.9</ele>
        <time>2023-02-22T11:28:25.710Z</time>
    </trkpt>
    <trkpt lat="43.15721" lon="-2.65755">
        <ele>233.0</ele>
        <time>2023-02-22T11:28:35.888Z</time>
    </trkpt>
    <trkpt lat="43.15727" lon="-2.65751">
        <ele>233.0</ele>
        <time>2023-02-22T11:28:45.976Z</time>
    </trkpt>
    <trkpt lat="43.15729" lon="-2.6575">
        <ele>233.1</ele>
        <time>2023-02-22T11:28:49.119Z</time>
    </trkpt>
    <trkpt lat="43.15735" lon="-2.65748">
        <ele>233.5</ele>
        <time>2023-02-22T11:28:58.057Z</time>
    </trkpt>
    <trkpt lat="43.15738" lon="-2.65747">
        <ele>233.8</ele>
        <time>2023-02-22T11:29:02.691Z</time>
    </trkpt>
    <trkpt lat="43.15742" lon="-2.65747">
        <ele>234.5</ele>
        <time>2023-02-22T11:29:08.561Z</time>
    </trkpt>
    <trkpt lat="43.15746" lon="-2.65747">
        <ele>234.8</ele>
        <time>2023-02-22T11:29:14.556Z</time>
    </trkpt>
    <trkpt lat="43.15751" lon="-2.65748">
        <ele>235.1</ele>
        <time>2023-02-22T11:29:22.200Z</time>
    </trkpt>
    <trkpt lat="43.15755" lon="-2.6575">
        <ele>235.8</ele>
        <time>2023-02-22T11:29:28.489Z</time>
    </trkpt>
    <trkpt lat="43.15776" lon="-2.65763">
        <ele>238.1</ele>
        <time>2023-02-22T11:30:03.040Z</time>
    </trkpt>
    <trkpt lat="43.15778" lon="-2.65764">
        <ele>238.1</ele>
        <time>2023-02-22T11:30:06.598Z</time>
    </trkpt>
    <trkpt lat="43.1578" lon="-2.65766">
        <ele>238.2</ele>
        <time>2023-02-22T11:30:10.567Z</time>
    </trkpt>
    <trkpt lat="43.15783" lon="-2.65768">
        <ele>238.3</ele>
        <time>2023-02-22T11:30:16.291Z</time>
    </trkpt>
    <trkpt lat="43.15785" lon="-2.65771">
        <ele>238.7</ele>
        <time>2023-02-22T11:30:21.148Z</time>
    </trkpt>
    <trkpt lat="43.15786" lon="-2.65774">
        <ele>239.2</ele>
        <time>2023-02-22T11:30:25.685Z</time>
    </trkpt>
    <trkpt lat="43.15788" lon="-2.65778">
        <ele>239.8</ele>
        <time>2023-02-22T11:30:33.302Z</time>
    </trkpt>
    <trkpt lat="43.15795" lon="-2.65801">
        <ele>244.5</ele>
        <time>2023-02-22T11:31:13.155Z</time>
    </trkpt>
    <trkpt lat="43.15796" lon="-2.65804">
        <ele>245.2</ele>
        <time>2023-02-22T11:31:19.153Z</time>
    </trkpt>
    <trkpt lat="43.15796" lon="-2.65806">
        <ele>245.7</ele>
        <time>2023-02-22T11:31:22.351Z</time>
    </trkpt>
    <trkpt lat="43.15797" lon="-2.65806">
        <ele>245.6</ele>
        <time>2023-02-22T11:31:24.339Z</time>
    </trkpt>
    <trkpt lat="43.15798" lon="-2.65808">
        <ele>246.1</ele>
        <time>2023-02-22T11:31:28.369Z</time>
    </trkpt>
    <trkpt lat="43.15799" lon="-2.65809">
        <ele>246.3</ele>
        <time>2023-02-22T11:31:30.904Z</time>
    </trkpt>
    <trkpt lat="43.15801" lon="-2.6581">
        <ele>246.4</ele>
        <time>2023-02-22T11:31:35.896Z</time>
    </trkpt>
    <trkpt lat="43.15803" lon="-2.65811">
        <ele>246.6</ele>
        <time>2023-02-22T11:31:41.439Z</time>
    </trkpt>
    <trkpt lat="43.15813" lon="-2.65813">
        <ele>246.6</ele>
        <time>2023-02-22T11:32:11.341Z</time>
    </trkpt>
    <trkpt lat="43.15821" lon="-2.65814">
        <ele>247.6</ele>
        <time>2023-02-22T11:32:36.776Z</time>
    </trkpt>
    <trkpt lat="43.15826" lon="-2.65816">
        <ele>248.9</ele>
        <time>2023-02-22T11:32:52.799Z</time>
    </trkpt>
    <trkpt lat="43.1583" lon="-2.65819">
        <ele>250.3</ele>
        <time>2023-02-22T11:33:08.642Z</time>
    </trkpt>
    <trkpt lat="43.15832" lon="-2.6582">
        <ele>250.9</ele>
        <time>2023-02-22T11:33:14.560Z</time>
    </trkpt>
    <trkpt lat="43.15844" lon="-2.65828">
        <ele>254.9</ele>
        <time>2023-02-22T11:33:46.266Z</time>
    </trkpt>
    <trkpt lat="43.15846" lon="-2.65829">
        <ele>255.5</ele>
        <time>2023-02-22T11:33:51.540Z</time>
    </trkpt>
    <trkpt lat="43.15851" lon="-2.65833">
        <ele>257.3</ele>
        <time>2023-02-22T11:34:05.657Z</time>
    </trkpt>
    <trkpt lat="43.15856" lon="-2.65836">
        <ele>258.7</ele>
        <time>2023-02-22T11:34:20.293Z</time>
    </trkpt>
    <trkpt lat="43.15863" lon="-2.65839">
        <ele>260.3</ele>
        <time>2023-02-22T11:34:42.403Z</time>
    </trkpt>
    <trkpt lat="43.1587" lon="-2.65842">
        <ele>261.9</ele>
        <time>2023-02-22T11:35:03.278Z</time>
    </trkpt>
    <trkpt lat="43.15877" lon="-2.65843">
        <ele>263.0</ele>
        <time>2023-02-22T11:35:20.443Z</time>
    </trkpt>
    <trkpt lat="43.15881" lon="-2.65844">
        <ele>263.7</ele>
        <time>2023-02-22T11:35:30.580Z</time>
    </trkpt>
    <trkpt lat="43.15884" lon="-2.65844">
        <ele>264.1</ele>
        <time>2023-02-22T11:35:39.092Z</time>
    </trkpt>
    <trkpt lat="43.15886" lon="-2.65843">
        <ele>264.3</ele>
        <time>2023-02-22T11:35:45.935Z</time>
    </trkpt>
    <trkpt lat="43.15888" lon="-2.65841">
        <ele>264.5</ele>
        <time>2023-02-22T11:35:52.457Z</time>
    </trkpt>
    <trkpt lat="43.15891" lon="-2.65837">
        <ele>264.7</ele>
        <time>2023-02-22T11:36:04.862Z</time>
    </trkpt>
    <trkpt lat="43.15893" lon="-2.65833">
        <ele>264.7</ele>
        <time>2023-02-22T11:36:13.667Z</time>
    </trkpt>
    <trkpt lat="43.15894" lon="-2.6583">
        <ele>264.6</ele>
        <time>2023-02-22T11:36:18.939Z</time>
    </trkpt>
    <trkpt lat="43.15894" lon="-2.65829">
        <ele>264.5</ele>
        <time>2023-02-22T11:36:20.388Z</time>
    </trkpt>
    <trkpt lat="43.15897" lon="-2.65822">
        <ele>264.7</ele>
        <time>2023-02-22T11:36:31.314Z</time>
    </trkpt>
    <trkpt lat="43.15899" lon="-2.65814">
        <ele>264.4</ele>
        <time>2023-02-22T11:36:42.115Z</time>
    </trkpt>
    <trkpt lat="43.159" lon="-2.65807">
        <ele>264.1</ele>
        <time>2023-02-22T11:36:50.970Z</time>
    </trkpt>
    <trkpt lat="43.15903" lon="-2.65783">
        <ele>263.4</ele>
        <time>2023-02-22T11:37:21.070Z</time>
    </trkpt>
    <trkpt lat="43.15906" lon="-2.65758">
        <ele>262.4</ele>
        <time>2023-02-22T11:37:54.114Z</time>
    </trkpt>
    <trkpt lat="43.15908" lon="-2.65741">
        <ele>261.5</ele>
        <time>2023-02-22T11:38:17.609Z</time>
    </trkpt>
    <trkpt lat="43.15908" lon="-2.65734">
        <ele>260.7</ele>
        <time>2023-02-22T11:38:27.688Z</time>
    </trkpt>
    <trkpt lat="43.15908" lon="-2.6573">
        <ele>260.1</ele>
        <time>2023-02-22T11:38:33.315Z</time>
    </trkpt>
    <trkpt lat="43.15909" lon="-2.65724">
        <ele>259.8</ele>
        <time>2023-02-22T11:38:42.453Z</time>
    </trkpt>
    <trkpt lat="43.1591" lon="-2.65719">
        <ele>259.6</ele>
        <time>2023-02-22T11:38:49.480Z</time>
    </trkpt>
    <trkpt lat="43.15912" lon="-2.65715">
        <ele>259.8</ele>
        <time>2023-02-22T11:38:55.595Z</time>
    </trkpt>
    <trkpt lat="43.15913" lon="-2.65713">
        <ele>259.9</ele>
        <time>2023-02-22T11:38:58.509Z</time>
    </trkpt>
    <trkpt lat="43.15914" lon="-2.65711">
        <ele>260.0</ele>
        <time>2023-02-22T11:39:01.251Z</time>
    </trkpt>
    <trkpt lat="43.15914" lon="-2.6571">
        <ele>259.8</ele>
        <time>2023-02-22T11:39:02.350Z</time>
    </trkpt>
    <trkpt lat="43.15917" lon="-2.65707">
        <ele>260.3</ele>
        <time>2023-02-22T11:39:07.727Z</time>
    </trkpt>
    <trkpt lat="43.15919" lon="-2.65704">
        <ele>260.3</ele>
        <time>2023-02-22T11:39:11.949Z</time>
    </trkpt>
    <trkpt lat="43.15924" lon="-2.65701">
        <ele>261.2</ele>
        <time>2023-02-22T11:39:20.472Z</time>
    </trkpt>
    <trkpt lat="43.15929" lon="-2.65699">
        <ele>262.1</ele>
        <time>2023-02-22T11:39:29.374Z</time>
    </trkpt>
    <trkpt lat="43.15931" lon="-2.65698">
        <ele>262.4</ele>
        <time>2023-02-22T11:39:32.860Z</time>
    </trkpt>
    <trkpt lat="43.15936" lon="-2.65696">
        <ele>263.1</ele>
        <time>2023-02-22T11:39:42.174Z</time>
    </trkpt>
    <trkpt lat="43.15942" lon="-2.65694">
        <ele>263.6</ele>
        <time>2023-02-22T11:39:54.065Z</time>
    </trkpt>
    <trkpt lat="43.15947" lon="-2.65693">
        <ele>264.2</ele>
        <time>2023-02-22T11:40:04.554Z</time>
    </trkpt>
    <trkpt lat="43.15948" lon="-2.65693">
        <ele>264.4</ele>
        <time>2023-02-22T11:40:06.459Z</time>
    </trkpt>
    <trkpt lat="43.15955" lon="-2.65692">
        <ele>265.3</ele>
        <time>2023-02-22T11:40:20.299Z</time>
    </trkpt>
    <trkpt lat="43.15965" lon="-2.65692">
        <ele>266.8</ele>
        <time>2023-02-22T11:40:40.093Z</time>
    </trkpt>
    <trkpt lat="43.15968" lon="-2.65693">
        <ele>267.7</ele>
        <time>2023-02-22T11:40:46.871Z</time>
    </trkpt>
    <trkpt lat="43.15972" lon="-2.65694">
        <ele>268.7</ele>
        <time>2023-02-22T11:40:54.966Z</time>
    </trkpt>
    <trkpt lat="43.15977" lon="-2.65695">
        <ele>269.9</ele>
        <time>2023-02-22T11:41:04.289Z</time>
    </trkpt>
    <trkpt lat="43.15981" lon="-2.65698">
        <ele>271.6</ele>
        <time>2023-02-22T11:41:13.800Z</time>
    </trkpt>
    <trkpt lat="43.15987" lon="-2.65701">
        <ele>273.5</ele>
        <time>2023-02-22T11:41:27.766Z</time>
    </trkpt>
    <trkpt lat="43.15998" lon="-2.6571">
        <ele>278.1</ele>
        <time>2023-02-22T11:41:58.044Z</time>
    </trkpt>
    <trkpt lat="43.16011" lon="-2.6572">
        <ele>281.5</ele>
        <time>2023-02-22T11:42:38.210Z</time>
    </trkpt>
    <trkpt lat="43.16014" lon="-2.65722">
        <ele>282.0</ele>
        <time>2023-02-22T11:42:48.412Z</time>
    </trkpt>
    <trkpt lat="43.16019" lon="-2.65725">
        <ele>282.8</ele>
        <time>2023-02-22T11:43:06.858Z</time>
    </trkpt>
    <trkpt lat="43.16026" lon="-2.65728">
        <ele>283.6</ele>
        <time>2023-02-22T11:43:32.065Z</time>
    </trkpt>
    <trkpt lat="43.16031" lon="-2.65729">
        <ele>283.9</ele>
        <time>2023-02-22T11:43:49.609Z</time>
    </trkpt>
    <trkpt lat="43.16037" lon="-2.65729">
        <ele>283.8</ele>
        <time>2023-02-22T11:44:13.018Z</time>
    </trkpt>
    <trkpt lat="43.16049" lon="-2.65728">
        <ele>283.5</ele>
        <time>2023-02-22T11:44:54.399Z</time>
    </trkpt>
    <trkpt lat="43.16054" lon="-2.65728">
        <ele>283.4</ele>
        <time>2023-02-22T11:45:12.280Z</time>
    </trkpt>
    <trkpt lat="43.16066" lon="-2.65728">
        <ele>283.3</ele>
        <time>2023-02-22T11:45:56.811Z</time>
    </trkpt>
    <trkpt lat="43.16067" lon="-2.65728">
        <ele>283.2</ele>
        <time>2023-02-22T11:45:59.715Z</time>
    </trkpt>
    <trkpt lat="43.16074" lon="-2.65729">
        <ele>283.5</ele>
        <time>2023-02-22T11:46:19.371Z</time>
    </trkpt>
    <trkpt lat="43.1608" lon="-2.65731">
        <ele>283.8</ele>
        <time>2023-02-22T11:46:34.808Z</time>
    </trkpt>
    <trkpt lat="43.16084" lon="-2.65732">
        <ele>283.8</ele>
        <time>2023-02-22T11:46:42.345Z</time>
    </trkpt>
    <trkpt lat="43.16094" lon="-2.65736">
        <ele>284.5</ele>
        <time>2023-02-22T11:46:59.667Z</time>
    </trkpt>
    <trkpt lat="43.16101" lon="-2.65739">
        <ele>284.9</ele>
        <time>2023-02-22T11:47:10.892Z</time>
    </trkpt>
    <trkpt lat="43.16111" lon="-2.65743">
        <ele>284.4</ele>
        <time>2023-02-22T11:47:26.376Z</time>
    </trkpt>
    <trkpt lat="43.16122" lon="-2.65748">
        <ele>284.0</ele>
        <time>2023-02-22T11:47:41.613Z</time>
    </trkpt>
    <trkpt lat="43.1613" lon="-2.6575">
        <ele>283.2</ele>
        <time>2023-02-22T11:47:51.717Z</time>
    </trkpt>
    <trkpt lat="43.16139" lon="-2.65752">
        <ele>282.3</ele>
        <time>2023-02-22T11:48:02.603Z</time>
    </trkpt>
    <trkpt lat="43.16154" lon="-2.65751">
        <ele>279.8</ele>
        <time>2023-02-22T11:48:20.591Z</time>
    </trkpt>
    <trkpt lat="43.16166" lon="-2.65751">
        <ele>278.3</ele>
        <time>2023-02-22T11:48:34.519Z</time>
    </trkpt>
    <trkpt lat="43.1617" lon="-2.65751">
        <ele>277.8</ele>
        <time>2023-02-22T11:48:39.051Z</time>
    </trkpt>
    <trkpt lat="43.16175" lon="-2.65753">
        <ele>277.7</ele>
        <time>2023-02-22T11:48:44.788Z</time>
    </trkpt>
    <trkpt lat="43.16179" lon="-2.65755">
        <ele>277.6</ele>
        <time>2023-02-22T11:48:49.592Z</time>
    </trkpt>
    <trkpt lat="43.16184" lon="-2.65758">
        <ele>277.8</ele>
        <time>2023-02-22T11:48:55.521Z</time>
    </trkpt>
    <trkpt lat="43.16206" lon="-2.65765">
        <ele>277.6</ele>
        <time>2023-02-22T11:49:19.756Z</time>
    </trkpt>
    <trkpt lat="43.1621" lon="-2.65766">
        <ele>277.6</ele>
        <time>2023-02-22T11:49:24.117Z</time>
    </trkpt>
    <trkpt lat="43.16215" lon="-2.65769">
        <ele>278.2</ele>
        <time>2023-02-22T11:49:29.628Z</time>
    </trkpt>
    <trkpt lat="43.1622" lon="-2.65773">
        <ele>279.1</ele>
        <time>2023-02-22T11:49:35.255Z</time>
    </trkpt>
    <trkpt lat="43.16225" lon="-2.65778">
        <ele>279.8</ele>
        <time>2023-02-22T11:49:41.509Z</time>
    </trkpt>
    <trkpt lat="43.16235" lon="-2.6579">
        <ele>281.1</ele>
        <time>2023-02-22T11:49:53.628Z</time>
    </trkpt>
    <trkpt lat="43.16237" lon="-2.65791">
        <ele>281.0</ele>
        <time>2023-02-22T11:49:55.660Z</time>
    </trkpt>
    <trkpt lat="43.1625" lon="-2.65807">
        <ele>281.5</ele>
        <time>2023-02-22T11:50:12.029Z</time>
    </trkpt>
    <trkpt lat="43.16255" lon="-2.65813">
        <ele>280.9</ele>
        <time>2023-02-22T11:50:18.247Z</time>
    </trkpt>
    <trkpt lat="43.16261" lon="-2.65822">
        <ele>280.1</ele>
        <time>2023-02-22T11:50:26.340Z</time>
    </trkpt>
    <trkpt lat="43.16265" lon="-2.6583">
        <ele>279.6</ele>
        <time>2023-02-22T11:50:33.083Z</time>
    </trkpt>
    <trkpt lat="43.16268" lon="-2.65838">
        <ele>278.9</ele>
        <time>2023-02-22T11:50:39.599Z</time>
    </trkpt>
    <trkpt lat="43.1627" lon="-2.65847">
        <ele>278.2</ele>
        <time>2023-02-22T11:50:46.367Z</time>
    </trkpt>
    <trkpt lat="43.16271" lon="-2.65852">
        <ele>277.8</ele>
        <time>2023-02-22T11:50:50.178Z</time>
    </trkpt>
    <trkpt lat="43.16272" lon="-2.65861">
        <ele>277.4</ele>
        <time>2023-02-22T11:50:56.655Z</time>
    </trkpt>
    <trkpt lat="43.16273" lon="-2.65871">
        <ele>276.9</ele>
        <time>2023-02-22T11:51:03.640Z</time>
    </trkpt>
    <trkpt lat="43.16275" lon="-2.65896">
        <ele>275.4</ele>
        <time>2023-02-22T11:51:20.574Z</time>
    </trkpt>
    <trkpt lat="43.162755" lon="-2.65896">
        <ele>275.1</ele>
        <time>2023-02-22T11:51:21.056Z</time>
    </trkpt>
    <trkpt lat="43.16279" lon="-2.65887">
        <ele>273.8</ele>
        <time>2023-02-22T11:51:28.528Z</time>
    </trkpt>
    <trkpt lat="43.162793" lon="-2.658866">
        <ele>273.7</ele>
        <time>2023-02-22T11:51:28.962Z</time>
    </trkpt>
    <trkpt lat="43.16281" lon="-2.65894">
        <ele>272.5</ele>
        <time>2023-02-22T11:51:35.031Z</time>
    </trkpt>
    <trkpt lat="43.16282" lon="-2.65901">
        <ele>271.6</ele>
        <time>2023-02-22T11:51:39.461Z</time>
    </trkpt>
    <trkpt lat="43.16282" lon="-2.65911">
        <ele>271.6</ele>
        <time>2023-02-22T11:51:45.650Z</time>
    </trkpt>
    <trkpt lat="43.16281" lon="-2.65918">
        <ele>272.2</ele>
        <time>2023-02-22T11:51:50.309Z</time>
    </trkpt>
    <trkpt lat="43.16281" lon="-2.65924">
        <ele>272.2</ele>
        <time>2023-02-22T11:51:53.591Z</time>
    </trkpt>
    <trkpt lat="43.16282" lon="-2.65931">
        <ele>271.8</ele>
        <time>2023-02-22T11:51:57.045Z</time>
    </trkpt>
    <trkpt lat="43.16282" lon="-2.65939">
        <ele>271.8</ele>
        <time>2023-02-22T11:52:01.227Z</time>
    </trkpt>
    <trkpt lat="43.16284" lon="-2.6596">
        <ele>270.5</ele>
        <time>2023-02-22T11:52:11.096Z</time>
    </trkpt>
    <trkpt lat="43.16286" lon="-2.65974">
        <ele>269.6</ele>
        <time>2023-02-22T11:52:17.191Z</time>
    </trkpt>
    <trkpt lat="43.16287" lon="-2.65984">
        <ele>269.2</ele>
        <time>2023-02-22T11:52:21.399Z</time>
    </trkpt>
    <trkpt lat="43.16291" lon="-2.66007">
        <ele>267.6</ele>
        <time>2023-02-22T11:52:31.264Z</time>
    </trkpt>
    <trkpt lat="43.16291" lon="-2.66008">
        <ele>267.6</ele>
        <time>2023-02-22T11:52:31.719Z</time>
    </trkpt>
    <trkpt lat="43.16292" lon="-2.66018">
        <ele>266.8</ele>
        <time>2023-02-22T11:52:36.545Z</time>
    </trkpt>
    <trkpt lat="43.16295" lon="-2.6603">
        <ele>265.3</ele>
        <time>2023-02-22T11:52:42.206Z</time>
    </trkpt>
    <trkpt lat="43.16296" lon="-2.6604">
        <ele>264.4</ele>
        <time>2023-02-22T11:52:46.600Z</time>
    </trkpt>
    <trkpt lat="43.16298" lon="-2.6605">
        <ele>262.9</ele>
        <time>2023-02-22T11:52:50.788Z</time>
    </trkpt>
    <trkpt lat="43.16299" lon="-2.66061">
        <ele>261.7</ele>
        <time>2023-02-22T11:52:55.002Z</time>
    </trkpt>
    <trkpt lat="43.163" lon="-2.6607">
        <ele>260.7</ele>
        <time>2023-02-22T11:52:58.510Z</time>
    </trkpt>
    <trkpt lat="43.16299" lon="-2.66081">
        <ele>260.1</ele>
        <time>2023-02-22T11:53:03.005Z</time>
    </trkpt>
    <trkpt lat="43.16299" lon="-2.66083">
        <ele>259.9</ele>
        <time>2023-02-22T11:53:03.874Z</time>
    </trkpt>
    <trkpt lat="43.16298" lon="-2.66095">
        <ele>259.1</ele>
        <time>2023-02-22T11:53:09.512Z</time>
    </trkpt>
    <trkpt lat="43.16295" lon="-2.66105">
        <ele>258.7</ele>
        <time>2023-02-22T11:53:14.577Z</time>
    </trkpt>
    <trkpt lat="43.16294" lon="-2.66109">
        <ele>258.4</ele>
        <time>2023-02-22T11:53:16.405Z</time>
    </trkpt>
    <trkpt lat="43.16288" lon="-2.66123">
        <ele>257.6</ele>
        <time>2023-02-22T11:53:23.655Z</time>
    </trkpt>
    <trkpt lat="43.16287" lon="-2.66126">
        <ele>257.4</ele>
        <time>2023-02-22T11:53:25.254Z</time>
    </trkpt>
    <trkpt lat="43.16281" lon="-2.66137">
        <ele>256.3</ele>
        <time>2023-02-22T11:53:31.598Z</time>
    </trkpt>
    <trkpt lat="43.16275" lon="-2.66145">
        <ele>255.4</ele>
        <time>2023-02-22T11:53:36.827Z</time>
    </trkpt>
    <trkpt lat="43.16273" lon="-2.66149">
        <ele>254.8</ele>
        <time>2023-02-22T11:53:38.968Z</time>
    </trkpt>
    <trkpt lat="43.16266" lon="-2.66157">
        <ele>253.6</ele>
        <time>2023-02-22T11:53:44.230Z</time>
    </trkpt>
    <trkpt lat="43.1626" lon="-2.66161">
        <ele>253.3</ele>
        <time>2023-02-22T11:53:48.433Z</time>
    </trkpt>
    <trkpt lat="43.16253" lon="-2.66163">
        <ele>253.5</ele>
        <time>2023-02-22T11:53:52.837Z</time>
    </trkpt>
    <trkpt lat="43.16248" lon="-2.66163">
        <ele>253.9</ele>
        <time>2023-02-22T11:53:56.011Z</time>
    </trkpt>
    <trkpt lat="43.16243" lon="-2.66164">
        <ele>254.2</ele>
        <time>2023-02-22T11:53:59.486Z</time>
    </trkpt>
    <trkpt lat="43.16239" lon="-2.66165">
        <ele>254.6</ele>
        <time>2023-02-22T11:54:02.298Z</time>
    </trkpt>
    <trkpt lat="43.16234" lon="-2.66166">
        <ele>255.3</ele>
        <time>2023-02-22T11:54:05.796Z</time>
    </trkpt>
    <trkpt lat="43.16231" lon="-2.66169">
        <ele>255.3</ele>
        <time>2023-02-22T11:54:08.112Z</time>
    </trkpt>
    <trkpt lat="43.16228" lon="-2.66175">
        <ele>254.8</ele>
        <time>2023-02-22T11:54:11.151Z</time>
    </trkpt>
    <trkpt lat="43.16224" lon="-2.66188">
        <ele>253.5</ele>
        <time>2023-02-22T11:54:17.029Z</time>
    </trkpt>
    <trkpt lat="43.16223" lon="-2.66198">
        <ele>252.0</ele>
        <time>2023-02-22T11:54:21.581Z</time>
    </trkpt>
    <trkpt lat="43.16222" lon="-2.66203">
        <ele>251.3</ele>
        <time>2023-02-22T11:54:24.119Z</time>
    </trkpt>
    <trkpt lat="43.1622" lon="-2.66215">
        <ele>249.5</ele>
        <time>2023-02-22T11:54:30.217Z</time>
    </trkpt>
    <trkpt lat="43.16218" lon="-2.66227">
        <ele>247.8</ele>
        <time>2023-02-22T11:54:36.580Z</time>
    </trkpt>
    <trkpt lat="43.16215" lon="-2.66238">
        <ele>246.7</ele>
        <time>2023-02-22T11:54:42.938Z</time>
    </trkpt>
    <trkpt lat="43.16211" lon="-2.6625">
        <ele>245.7</ele>
        <time>2023-02-22T11:54:50.288Z</time>
    </trkpt>
    <trkpt lat="43.16205" lon="-2.66265">
        <ele>245.2</ele>
        <time>2023-02-22T11:54:59.445Z</time>
    </trkpt>
    <trkpt lat="43.162" lon="-2.66277">
        <ele>245.4</ele>
        <time>2023-02-22T11:55:06.066Z</time>
    </trkpt>
    <trkpt lat="43.16196" lon="-2.66284">
        <ele>245.9</ele>
        <time>2023-02-22T11:55:09.936Z</time>
    </trkpt>
    <trkpt lat="43.16194" lon="-2.66287">
        <ele>246.2</ele>
        <time>2023-02-22T11:55:11.862Z</time>
    </trkpt>
    <trkpt lat="43.16192" lon="-2.66289">
        <ele>246.6</ele>
        <time>2023-02-22T11:55:13.543Z</time>
    </trkpt>
    <trkpt lat="43.16185" lon="-2.66296">
        <ele>247.7</ele>
        <time>2023-02-22T11:55:19.354Z</time>
    </trkpt>
    <trkpt lat="43.16177" lon="-2.66302">
        <ele>249.3</ele>
        <time>2023-02-22T11:55:25.767Z</time>
    </trkpt>
    <trkpt lat="43.16172" lon="-2.66309">
        <ele>249.7</ele>
        <time>2023-02-22T11:55:30.377Z</time>
    </trkpt>
    <trkpt lat="43.16166" lon="-2.66317">
        <ele>250.0</ele>
        <time>2023-02-22T11:55:35.801Z</time>
    </trkpt>
    <trkpt lat="43.16165" lon="-2.66318">
        <ele>250.1</ele>
        <time>2023-02-22T11:55:36.668Z</time>
    </trkpt>
    <trkpt lat="43.16163" lon="-2.66324">
        <ele>249.8</ele>
        <time>2023-02-22T11:55:40.292Z</time>
    </trkpt>
    <trkpt lat="43.16161" lon="-2.66333">
        <ele>249.2</ele>
        <time>2023-02-22T11:55:45.205Z</time>
    </trkpt>
    <trkpt lat="43.16161" lon="-2.66341">
        <ele>248.3</ele>
        <time>2023-02-22T11:55:49.134Z</time>
    </trkpt>
    <trkpt lat="43.16163" lon="-2.6635">
        <ele>246.9</ele>
        <time>2023-02-22T11:55:53.811Z</time>
    </trkpt>
    <trkpt lat="43.16166" lon="-2.6636">
        <ele>245.1</ele>
        <time>2023-02-22T11:55:58.868Z</time>
    </trkpt>
    <trkpt lat="43.16171" lon="-2.66373">
        <ele>242.3</ele>
        <time>2023-02-22T11:56:06.119Z</time>
    </trkpt>
    <trkpt lat="43.16174" lon="-2.66379">
        <ele>240.5</ele>
        <time>2023-02-22T11:56:09.986Z</time>
    </trkpt>
    <trkpt lat="43.16174" lon="-2.66384">
        <ele>239.8</ele>
        <time>2023-02-22T11:56:12.364Z</time>
    </trkpt>
    <trkpt lat="43.16175" lon="-2.6639">
        <ele>238.7</ele>
        <time>2023-02-22T11:56:15.528Z</time>
    </trkpt>
    <trkpt lat="43.16174" lon="-2.66395">
        <ele>238.2</ele>
        <time>2023-02-22T11:56:18.058Z</time>
    </trkpt>
    <trkpt lat="43.16173" lon="-2.66403">
        <ele>237.2</ele>
        <time>2023-02-22T11:56:21.667Z</time>
    </trkpt>
    <trkpt lat="43.16172" lon="-2.66409">
        <ele>236.6</ele>
        <time>2023-02-22T11:56:24.329Z</time>
    </trkpt>
    <trkpt lat="43.16171" lon="-2.6641">
        <ele>236.8</ele>
        <time>2023-02-22T11:56:25.043Z</time>
    </trkpt>
    <trkpt lat="43.16168" lon="-2.66417">
        <ele>236.3</ele>
        <time>2023-02-22T11:56:28.658Z</time>
    </trkpt>
    <trkpt lat="43.16165" lon="-2.66426">
        <ele>235.1</ele>
        <time>2023-02-22T11:56:33.571Z</time>
    </trkpt>
    <trkpt lat="43.1616" lon="-2.66436">
        <ele>233.7</ele>
        <time>2023-02-22T11:56:39.737Z</time>
    </trkpt>
    <trkpt lat="43.16153" lon="-2.66451">
        <ele>231.4</ele>
        <time>2023-02-22T11:56:48.167Z</time>
    </trkpt>
    <trkpt lat="43.16148" lon="-2.66457">
        <ele>230.8</ele>
        <time>2023-02-22T11:56:52.464Z</time>
    </trkpt>
    <trkpt lat="43.16141" lon="-2.66462">
        <ele>231.2</ele>
        <time>2023-02-22T11:56:57.639Z</time>
    </trkpt>
    <trkpt lat="43.16134" lon="-2.66467">
        <ele>231.8</ele>
        <time>2023-02-22T11:57:02.885Z</time>
    </trkpt>
    <trkpt lat="43.16129" lon="-2.66472">
        <ele>232.0</ele>
        <time>2023-02-22T11:57:07.324Z</time>
    </trkpt>
    <trkpt lat="43.16125" lon="-2.66478">
        <ele>231.9</ele>
        <time>2023-02-22T11:57:11.463Z</time>
    </trkpt>
    <trkpt lat="43.16124" lon="-2.66485">
        <ele>230.7</ele>
        <time>2023-02-22T11:57:14.716Z</time>
    </trkpt>
    <trkpt lat="43.16123" lon="-2.66492">
        <ele>229.5</ele>
        <time>2023-02-22T11:57:17.700Z</time>
    </trkpt>
    <trkpt lat="43.16124" lon="-2.66503">
        <ele>226.9</ele>
        <time>2023-02-22T11:57:22.546Z</time>
    </trkpt>
    <trkpt lat="43.16124" lon="-2.66506">
        <ele>226.2</ele>
        <time>2023-02-22T11:57:23.973Z</time>
    </trkpt>
    <trkpt lat="43.16125" lon="-2.66517">
        <ele>223.6</ele>
        <time>2023-02-22T11:57:28.765Z</time>
    </trkpt>
    <trkpt lat="43.16127" lon="-2.66522">
        <ele>221.9</ele>
        <time>2023-02-22T11:57:31.450Z</time>
    </trkpt>
    <trkpt lat="43.1613" lon="-2.66527">
        <ele>220.2</ele>
        <time>2023-02-22T11:57:34.748Z</time>
    </trkpt>
    <trkpt lat="43.16132" lon="-2.6653">
        <ele>219.1</ele>
        <time>2023-02-22T11:57:36.601Z</time>
    </trkpt>
    <trkpt lat="43.16135" lon="-2.6653">
        <ele>218.2</ele>
        <time>2023-02-22T11:57:38.635Z</time>
    </trkpt>
    <trkpt lat="43.16138" lon="-2.66529">
        <ele>217.5</ele>
        <time>2023-02-22T11:57:40.891Z</time>
    </trkpt>
    <trkpt lat="43.1614" lon="-2.66525">
        <ele>217.5</ele>
        <time>2023-02-22T11:57:43.659Z</time>
    </trkpt>
    <trkpt lat="43.16142" lon="-2.66518">
        <ele>218.1</ele>
        <time>2023-02-22T11:57:48.223Z</time>
    </trkpt>
    <trkpt lat="43.16144" lon="-2.66509">
        <ele>219.4</ele>
        <time>2023-02-22T11:57:54.263Z</time>
    </trkpt>
    <trkpt lat="43.16148" lon="-2.66502">
        <ele>219.6</ele>
        <time>2023-02-22T11:58:00.264Z</time>
    </trkpt>
    <trkpt lat="43.16156" lon="-2.66496">
        <ele>218.8</ele>
        <time>2023-02-22T11:58:09.084Z</time>
    </trkpt>
    <trkpt lat="43.16165" lon="-2.66491">
        <ele>217.5</ele>
        <time>2023-02-22T11:58:18.855Z</time>
    </trkpt>
    <trkpt lat="43.16172" lon="-2.66486">
        <ele>217.0</ele>
        <time>2023-02-22T11:58:27.078Z</time>
    </trkpt>
    <trkpt lat="43.16179" lon="-2.66479">
        <ele>217.3</ele>
        <time>2023-02-22T11:58:36.384Z</time>
    </trkpt>
    <trkpt lat="43.16184" lon="-2.66471">
        <ele>218.5</ele>
        <time>2023-02-22T11:58:44.862Z</time>
    </trkpt>
    <trkpt lat="43.16189" lon="-2.66463">
        <ele>219.5</ele>
        <time>2023-02-22T11:58:52.594Z</time>
    </trkpt>
    <trkpt lat="43.16193" lon="-2.66459">
        <ele>219.5</ele>
        <time>2023-02-22T11:58:57.369Z</time>
    </trkpt>
    <trkpt lat="43.16197" lon="-2.66459">
        <ele>217.9</ele>
        <time>2023-02-22T11:59:01.383Z</time>
    </trkpt>
    <trkpt lat="43.16203" lon="-2.66458">
        <ele>215.3</ele>
        <time>2023-02-22T11:59:07.282Z</time>
    </trkpt>
    <trkpt lat="43.16214" lon="-2.66457">
        <ele>210.4</ele>
        <time>2023-02-22T11:59:17.699Z</time>
    </trkpt>
    <trkpt lat="43.16223" lon="-2.66456">
        <ele>206.0</ele>
        <time>2023-02-22T11:59:26.214Z</time>
    </trkpt>
    <trkpt lat="43.1623" lon="-2.66454">
        <ele>202.7</ele>
        <time>2023-02-22T11:59:32.854Z</time>
    </trkpt>
    <trkpt lat="43.16236" lon="-2.6645">
        <ele>200.4</ele>
        <time>2023-02-22T11:59:38.426Z</time>
    </trkpt>
    <trkpt lat="43.16241" lon="-2.66443">
        <ele>199.8</ele>
        <time>2023-02-22T11:59:44.442Z</time>
    </trkpt>
    <trkpt lat="43.16243" lon="-2.66436">
        <ele>200.7</ele>
        <time>2023-02-22T11:59:48.614Z</time>
    </trkpt>
    <trkpt lat="43.16245" lon="-2.66425">
        <ele>202.9</ele>
        <time>2023-02-22T11:59:54.340Z</time>
    </trkpt>
    <trkpt lat="43.16246" lon="-2.66415">
        <ele>204.7</ele>
        <time>2023-02-22T11:59:59.228Z</time>
    </trkpt>
    <trkpt lat="43.16247" lon="-2.6641">
        <ele>205.3</ele>
        <time>2023-02-22T12:00:01.938Z</time>
    </trkpt>
    <trkpt lat="43.16247" lon="-2.66409">
        <ele>205.5</ele>
        <time>2023-02-22T12:00:02.497Z</time>
    </trkpt>
    <trkpt lat="43.16248" lon="-2.66403">
        <ele>206.4</ele>
        <time>2023-02-22T12:00:06.173Z</time>
    </trkpt>
    <trkpt lat="43.16249" lon="-2.66399">
        <ele>206.9</ele>
        <time>2023-02-22T12:00:08.847Z</time>
    </trkpt>
    <trkpt lat="43.16251" lon="-2.66395">
        <ele>207.0</ele>
        <time>2023-02-22T12:00:11.715Z</time>
    </trkpt>
    <trkpt lat="43.16255" lon="-2.66391">
        <ele>206.5</ele>
        <time>2023-02-22T12:00:16.116Z</time>
    </trkpt>
    <trkpt lat="43.16256" lon="-2.6639">
        <ele>206.4</ele>
        <time>2023-02-22T12:00:17.271Z</time>
    </trkpt>
    <trkpt lat="43.1626" lon="-2.66387">
        <ele>205.7</ele>
        <time>2023-02-22T12:00:21.003Z</time>
    </trkpt>
    <trkpt lat="43.16267" lon="-2.66381">
        <ele>204.7</ele>
        <time>2023-02-22T12:00:27.534Z</time>
    </trkpt>
    <trkpt lat="43.16271" lon="-2.66376">
        <ele>204.5</ele>
        <time>2023-02-22T12:00:31.263Z</time>
    </trkpt>
    <trkpt lat="43.16278" lon="-2.66371">
        <ele>203.0</ele>
        <time>2023-02-22T12:00:36.780Z</time>
    </trkpt>
    <trkpt lat="43.16285" lon="-2.66367">
        <ele>201.1</ele>
        <time>2023-02-22T12:00:41.824Z</time>
    </trkpt>
    <trkpt lat="43.16288" lon="-2.66364">
        <ele>200.6</ele>
        <time>2023-02-22T12:00:44.335Z</time>
    </trkpt>
    <trkpt lat="43.16291" lon="-2.66361">
        <ele>200.1</ele>
        <time>2023-02-22T12:00:46.631Z</time>
    </trkpt>
    <trkpt lat="43.16294" lon="-2.66357">
        <ele>199.8</ele>
        <time>2023-02-22T12:00:49.440Z</time>
    </trkpt>
    <trkpt lat="43.16297" lon="-2.66351">
        <ele>200.1</ele>
        <time>2023-02-22T12:00:53.236Z</time>
    </trkpt>
    <trkpt lat="43.16299" lon="-2.66347">
        <ele>200.3</ele>
        <time>2023-02-22T12:00:55.910Z</time>
    </trkpt>
    <trkpt lat="43.16302" lon="-2.66345">
        <ele>199.4</ele>
        <time>2023-02-22T12:00:58.601Z</time>
    </trkpt>
    <trkpt lat="43.16305" lon="-2.66344">
        <ele>198.3</ele>
        <time>2023-02-22T12:01:01.161Z</time>
    </trkpt>
    <trkpt lat="43.16308" lon="-2.66343">
        <ele>197.2</ele>
        <time>2023-02-22T12:01:03.435Z</time>
    </trkpt>
    <trkpt lat="43.16312" lon="-2.66343">
        <ele>195.4</ele>
        <time>2023-02-22T12:01:06.267Z</time>
    </trkpt>
    <trkpt lat="43.16317" lon="-2.66344">
        <ele>193.8</ele>
        <time>2023-02-22T12:01:09.979Z</time>
    </trkpt>
    <trkpt lat="43.16318" lon="-2.66344">
        <ele>193.7</ele>
        <time>2023-02-22T12:01:10.781Z</time>
    </trkpt>
    <trkpt lat="43.16332" lon="-2.6635">
        <ele>189.2</ele>
        <time>2023-02-22T12:01:21.066Z</time>
    </trkpt>
    <trkpt lat="43.16334" lon="-2.66351">
        <ele>188.4</ele>
        <time>2023-02-22T12:01:22.669Z</time>
    </trkpt>
    <trkpt lat="43.1634" lon="-2.66354">
        <ele>186.7</ele>
        <time>2023-02-22T12:01:26.973Z</time>
    </trkpt>
    <trkpt lat="43.16349" lon="-2.66358">
        <ele>184.8</ele>
        <time>2023-02-22T12:01:32.741Z</time>
    </trkpt>
    <trkpt lat="43.16351" lon="-2.66359">
        <ele>184.3</ele>
        <time>2023-02-22T12:01:33.956Z</time>
    </trkpt>
    <trkpt lat="43.16356" lon="-2.66359">
        <ele>183.8</ele>
        <time>2023-02-22T12:01:36.633Z</time>
    </trkpt>
    <trkpt lat="43.16362" lon="-2.66357">
        <ele>183.9</ele>
        <time>2023-02-22T12:01:40.008Z</time>
    </trkpt>
    <trkpt lat="43.16369" lon="-2.66353">
        <ele>184.6</ele>
        <time>2023-02-22T12:01:44.198Z</time>
    </trkpt>
    <trkpt lat="43.16378" lon="-2.66345">
        <ele>186.1</ele>
        <time>2023-02-22T12:01:49.916Z</time>
    </trkpt>
    <trkpt lat="43.16395" lon="-2.66336">
        <ele>186.1</ele>
        <time>2023-02-22T12:01:59.374Z</time>
    </trkpt>
    <trkpt lat="43.164" lon="-2.66333">
        <ele>186.0</ele>
        <time>2023-02-22T12:02:02.184Z</time>
    </trkpt>
    <trkpt lat="43.16407" lon="-2.6633">
        <ele>185.5</ele>
        <time>2023-02-22T12:02:05.813Z</time>
    </trkpt>
    <trkpt lat="43.16418" lon="-2.66327">
        <ele>184.1</ele>
        <time>2023-02-22T12:02:11.170Z</time>
    </trkpt>
    <trkpt lat="43.16427" lon="-2.66324">
        <ele>183.0</ele>
        <time>2023-02-22T12:02:15.462Z</time>
    </trkpt>
    <trkpt lat="43.16435" lon="-2.66321">
        <ele>181.8</ele>
        <time>2023-02-22T12:02:19.476Z</time>
    </trkpt>
    <trkpt lat="43.16437" lon="-2.66321">
        <ele>181.4</ele>
        <time>2023-02-22T12:02:20.567Z</time>
    </trkpt>
    <trkpt lat="43.16449" lon="-2.66318">
        <ele>179.2</ele>
        <time>2023-02-22T12:02:26.910Z</time>
    </trkpt>
    <trkpt lat="43.16453" lon="-2.66318">
        <ele>178.4</ele>
        <time>2023-02-22T12:02:29.195Z</time>
    </trkpt>
    <trkpt lat="43.16455" lon="-2.66319">
        <ele>177.8</ele>
        <time>2023-02-22T12:02:30.523Z</time>
    </trkpt>
    <trkpt lat="43.16458" lon="-2.6632">
        <ele>176.9</ele>
        <time>2023-02-22T12:02:32.294Z</time>
    </trkpt>
    <trkpt lat="43.164723" lon="-2.663208">
        <ele>173.5</ele>
        <time>2023-02-22T12:02:40.228Z</time>
    </trkpt>
    <trkpt lat="43.164847" lon="-2.663146">
        <ele>170.9</ele>
        <time>2023-02-22T12:02:47.268Z</time>
    </trkpt>
    <trkpt lat="43.164965" lon="-2.663103">
        <ele>168.1</ele>
        <time>2023-02-22T12:02:53.637Z</time>
    </trkpt>
    <trkpt lat="43.165049" lon="-2.663049">
        <ele>166.0</ele>
        <time>2023-02-22T12:02:58.559Z</time>
    </trkpt>
    <trkpt lat="43.16515" lon="-2.663088">
        <ele>163.0</ele>
        <time>2023-02-22T12:03:03.850Z</time>
    </trkpt>
    <trkpt lat="43.165265" lon="-2.663122">
        <ele>160.3</ele>
        <time>2023-02-22T12:03:10.074Z</time>
    </trkpt>
    <trkpt lat="43.165339" lon="-2.66315">
        <ele>159.6</ele>
        <time>2023-02-22T12:03:14.000Z</time>
    </trkpt>
    <trkpt lat="43.165486" lon="-2.663095">
        <ele>158.0</ele>
        <time>2023-02-22T12:03:22.363Z</time>
    </trkpt>
    <trkpt lat="43.165632" lon="-2.663025">
        <ele>157.2</ele>
        <time>2023-02-22T12:03:30.614Z</time>
    </trkpt>
    <trkpt lat="43.165723" lon="-2.662986">
        <ele>156.7</ele>
        <time>2023-02-22T12:03:36.105Z</time>
    </trkpt>
    <trkpt lat="43.165818" lon="-2.662905">
        <ele>156.1</ele>
        <time>2023-02-22T12:03:42.478Z</time>
    </trkpt>
    <trkpt lat="43.165873" lon="-2.662858">
        <ele>155.7</ele>
        <time>2023-02-22T12:03:46.150Z</time>
    </trkpt>
    <trkpt lat="43.165934" lon="-2.662803">
        <ele>155.3</ele>
        <time>2023-02-22T12:03:50.191Z</time>
    </trkpt>
    <trkpt lat="43.166013" lon="-2.662727">
        <ele>155.0</ele>
        <time>2023-02-22T12:03:55.859Z</time>
    </trkpt>
    <trkpt lat="43.16607" lon="-2.66266">
        <ele>154.9</ele>
        <time>2023-02-22T12:04:00.626Z</time>
    </trkpt>
    <trkpt lat="43.16612" lon="-2.66257">
        <ele>154.6</ele>
        <time>2023-02-22T12:04:06.108Z</time>
    </trkpt>
    <trkpt lat="43.16617" lon="-2.66248">
        <ele>154.4</ele>
        <time>2023-02-22T12:04:11.842Z</time>
    </trkpt>
    <trkpt lat="43.16623" lon="-2.66238">
        <ele>154.2</ele>
        <time>2023-02-22T12:04:18.727Z</time>
    </trkpt>
    <trkpt lat="43.16624" lon="-2.66237">
        <ele>154.2</ele>
        <time>2023-02-22T12:04:19.693Z</time>
    </trkpt>
    <trkpt lat="43.16631" lon="-2.66227">
        <ele>154.2</ele>
        <time>2023-02-22T12:04:27.978Z</time>
    </trkpt>
    <trkpt lat="43.16639" lon="-2.66216">
        <ele>154.2</ele>
        <time>2023-02-22T12:04:37.699Z</time>
    </trkpt>
    <trkpt lat="43.16643" lon="-2.66213">
        <ele>154.3</ele>
        <time>2023-02-22T12:04:41.701Z</time>
    </trkpt>
    <trkpt lat="43.166431" lon="-2.662133">
        <ele>154.3</ele>
        <time>2023-02-22T12:04:41.922Z</time>
    </trkpt>
    <trkpt lat="43.16651" lon="-2.66197">
        <ele>153.9</ele>
        <time>2023-02-22T12:04:54.823Z</time>
    </trkpt>
    <trkpt lat="43.16652" lon="-2.66196">
        <ele>153.9</ele>
        <time>2023-02-22T12:04:55.995Z</time>
    </trkpt>
    <trkpt lat="43.16665" lon="-2.66177">
        <ele>153.9</ele>
        <time>2023-02-22T12:05:14.566Z</time>
    </trkpt>
    <trkpt lat="43.16673" lon="-2.66171">
        <ele>153.9</ele>
        <time>2023-02-22T12:05:23.282Z</time>
    </trkpt>
    <trkpt lat="43.1668" lon="-2.66168">
        <ele>154.0</ele>
        <time>2023-02-22T12:05:30.478Z</time>
    </trkpt>
    <trkpt lat="43.16687" lon="-2.66157">
        <ele>152.9</ele>
        <time>2023-02-22T12:05:41.222Z</time>
    </trkpt>
    <trkpt lat="43.16696" lon="-2.66147">
        <ele>151.7</ele>
        <time>2023-02-22T12:05:52.406Z</time>
    </trkpt>
    <trkpt lat="43.16721" lon="-2.66128">
        <ele>149.2</ele>
        <time>2023-02-22T12:06:18.967Z</time>
    </trkpt>
    <trkpt lat="43.16722" lon="-2.66128">
        <ele>149.2</ele>
        <time>2023-02-22T12:06:19.937Z</time>
    </trkpt>
    <trkpt lat="43.16746" lon="-2.66108">
        <ele>148.0</ele>
        <time>2023-02-22T12:06:46.872Z</time>
    </trkpt>
    <trkpt lat="43.16768" lon="-2.6609">
        <ele>146.7</ele>
        <time>2023-02-22T12:07:11.059Z</time>
    </trkpt>
    <trkpt lat="43.16784" lon="-2.6608">
        <ele>146.3</ele>
        <time>2023-02-22T12:07:27.797Z</time>
    </trkpt>
    <trkpt lat="43.16792" lon="-2.6608">
        <ele>146.8</ele>
        <time>2023-02-22T12:07:35.733Z</time>
    </trkpt>
    <trkpt lat="43.16822" lon="-2.66077">
        <ele>148.6</ele>
        <time>2023-02-22T12:08:05.913Z</time>
    </trkpt>
    <trkpt lat="43.16834" lon="-2.66076">
        <ele>149.8</ele>
        <time>2023-02-22T12:08:18.379Z</time>
    </trkpt>
    <trkpt lat="43.16844" lon="-2.66074">
        <ele>149.9</ele>
        <time>2023-02-22T12:08:29.189Z</time>
    </trkpt>
    <trkpt lat="43.16849" lon="-2.6607">
        <ele>149.6</ele>
        <time>2023-02-22T12:08:34.513Z</time>
    </trkpt>
    <trkpt lat="43.16854" lon="-2.66064">
        <ele>149.0</ele>
        <time>2023-02-22T12:08:40.140Z</time>
    </trkpt>
    <trkpt lat="43.16859" lon="-2.66057">
        <ele>148.5</ele>
        <time>2023-02-22T12:08:46.519Z</time>
    </trkpt>
    <trkpt lat="43.16862" lon="-2.66047">
        <ele>147.7</ele>
        <time>2023-02-22T12:08:53.908Z</time>
    </trkpt>
    <trkpt lat="43.16865" lon="-2.66031">
        <ele>146.4</ele>
        <time>2023-02-22T12:09:03.243Z</time>
    </trkpt>
    <trkpt lat="43.16868" lon="-2.66014">
        <ele>145.3</ele>
        <time>2023-02-22T12:09:13.041Z</time>
    </trkpt>
    <trkpt lat="43.16869" lon="-2.66007">
        <ele>144.8</ele>
        <time>2023-02-22T12:09:16.874Z</time>
    </trkpt>
    <trkpt lat="43.16877" lon="-2.65959">
        <ele>140.2</ele>
        <time>2023-02-22T12:09:43.522Z</time>
    </trkpt>
    <trkpt lat="43.16878" lon="-2.65951">
        <ele>139.4</ele>
        <time>2023-02-22T12:09:47.678Z</time>
    </trkpt>
    <trkpt lat="43.16883" lon="-2.65923">
        <ele>137.0</ele>
        <time>2023-02-22T12:10:01.761Z</time>
    </trkpt>
    <trkpt lat="43.16886" lon="-2.65915">
        <ele>136.8</ele>
        <time>2023-02-22T12:10:06.459Z</time>
    </trkpt>
    <trkpt lat="43.16888" lon="-2.65913">
        <ele>136.9</ele>
        <time>2023-02-22T12:10:08.359Z</time>
    </trkpt>
    <trkpt lat="43.16891" lon="-2.65906">
        <ele>136.8</ele>
        <time>2023-02-22T12:10:12.605Z</time>
    </trkpt>
    <trkpt lat="43.16901" lon="-2.65896">
        <ele>137.5</ele>
        <time>2023-02-22T12:10:21.687Z</time>
    </trkpt>
    <trkpt lat="43.16914" lon="-2.6588">
        <ele>137.4</ele>
        <time>2023-02-22T12:10:34.930Z</time>
    </trkpt>
    <trkpt lat="43.16926" lon="-2.65867">
        <ele>137.7</ele>
        <time>2023-02-22T12:10:47.209Z</time>
    </trkpt>
    <trkpt lat="43.16942" lon="-2.65849">
        <ele>138.3</ele>
        <time>2023-02-22T12:11:04.328Z</time>
    </trkpt>
    <trkpt lat="43.16952" lon="-2.65839">
        <ele>138.6</ele>
        <time>2023-02-22T12:11:15.160Z</time>
    </trkpt>
    <trkpt lat="43.16984" lon="-2.65802">
        <ele>136.4</ele>
        <time>2023-02-22T12:11:51.144Z</time>
    </trkpt>
    <trkpt lat="43.17002" lon="-2.65781">
        <ele>135.8</ele>
        <time>2023-02-22T12:12:11.006Z</time>
    </trkpt>
    <trkpt lat="43.1704" lon="-2.65737">
        <ele>130.0</ele>
        <time>2023-02-22T12:12:53.182Z</time>
    </trkpt>
    <trkpt lat="43.17053" lon="-2.65723">
        <ele>129.1</ele>
        <time>2023-02-22T12:13:05.988Z</time>
    </trkpt>
    <trkpt lat="43.17069" lon="-2.65704">
        <ele>128.7</ele>
        <time>2023-02-22T12:13:21.655Z</time>
    </trkpt>
    <trkpt lat="43.17115" lon="-2.6565">
        <ele>123.1</ele>
        <time>2023-02-22T12:14:04.456Z</time>
    </trkpt>
    <trkpt lat="43.17122" lon="-2.65643">
        <ele>121.6</ele>
        <time>2023-02-22T12:14:09.954Z</time>
    </trkpt>
    <trkpt lat="43.17129" lon="-2.65635">
        <ele>120.5</ele>
        <time>2023-02-22T12:14:16.127Z</time>
    </trkpt>
    <trkpt lat="43.17136" lon="-2.65629">
        <ele>119.4</ele>
        <time>2023-02-22T12:14:22.153Z</time>
    </trkpt>
    <trkpt lat="43.17147" lon="-2.65621">
        <ele>117.9</ele>
        <time>2023-02-22T12:14:31.130Z</time>
    </trkpt>
    <trkpt lat="43.17152" lon="-2.65616">
        <ele>117.3</ele>
        <time>2023-02-22T12:14:35.952Z</time>
    </trkpt>
    <trkpt lat="43.17164" lon="-2.65606">
        <ele>116.1</ele>
        <time>2023-02-22T12:14:47.596Z</time>
    </trkpt>
    <trkpt lat="43.17183" lon="-2.65591">
        <ele>117.0</ele>
        <time>2023-02-22T12:15:06.736Z</time>
    </trkpt>
    <trkpt lat="43.17198" lon="-2.65578">
        <ele>118.0</ele>
        <time>2023-02-22T12:15:22.781Z</time>
    </trkpt>
    <trkpt lat="43.172" lon="-2.65577">
        <ele>118.2</ele>
        <time>2023-02-22T12:15:24.517Z</time>
    </trkpt>
    <trkpt lat="43.17216" lon="-2.65564">
        <ele>119.9</ele>
        <time>2023-02-22T12:15:40.330Z</time>
    </trkpt>
    <trkpt lat="43.17227" lon="-2.65553">
        <ele>120.1</ele>
        <time>2023-02-22T12:15:52.555Z</time>
    </trkpt>
    <trkpt lat="43.17228" lon="-2.65551">
        <ele>119.9</ele>
        <time>2023-02-22T12:15:54.220Z</time>
    </trkpt>
    <trkpt lat="43.1724" lon="-2.65538">
        <ele>119.6</ele>
        <time>2023-02-22T12:16:09.346Z</time>
    </trkpt>
    <trkpt lat="43.17242" lon="-2.65535">
        <ele>119.5</ele>
        <time>2023-02-22T12:16:12.387Z</time>
    </trkpt>
    <trkpt lat="43.17254" lon="-2.6552">
        <ele>118.0</ele>
        <time>2023-02-22T12:16:29.682Z</time>
    </trkpt>
    <trkpt lat="43.17255" lon="-2.65519">
        <ele>117.8</ele>
        <time>2023-02-22T12:16:31.036Z</time>
    </trkpt>
    <trkpt lat="43.17274" lon="-2.65492">
        <ele>117.2</ele>
        <time>2023-02-22T12:17:02.166Z</time>
    </trkpt>
    <trkpt lat="43.17289" lon="-2.65467">
        <ele>119.3</ele>
        <time>2023-02-22T12:17:29.559Z</time>
    </trkpt>
    <trkpt lat="43.17315" lon="-2.65434">
        <ele>122.1</ele>
        <time>2023-02-22T12:18:10.988Z</time>
    </trkpt>
    <trkpt lat="43.1733" lon="-2.65413">
        <ele>121.5</ele>
        <time>2023-02-22T12:18:36.662Z</time>
    </trkpt>
    <trkpt lat="43.17336" lon="-2.65405">
        <ele>121.5</ele>
        <time>2023-02-22T12:18:45.748Z</time>
    </trkpt>
    <trkpt lat="43.17344" lon="-2.65397">
        <ele>121.2</ele>
        <time>2023-02-22T12:18:56.946Z</time>
    </trkpt>
    <trkpt lat="43.1736" lon="-2.65379">
        <ele>119.5</ele>
        <time>2023-02-22T12:19:20.832Z</time>
    </trkpt>
    <trkpt lat="43.17378" lon="-2.65363">
        <ele>117.7</ele>
        <time>2023-02-22T12:19:43.421Z</time>
    </trkpt>
    <trkpt lat="43.17407" lon="-2.65335">
        <ele>115.6</ele>
        <time>2023-02-22T12:20:13.542Z</time>
    </trkpt>
    <trkpt lat="43.17446" lon="-2.65295">
        <ele>109.6</ele>
        <time>2023-02-22T12:20:51.293Z</time>
    </trkpt>
    <trkpt lat="43.17449" lon="-2.65286">
        <ele>109.0</ele>
        <time>2023-02-22T12:20:56.168Z</time>
    </trkpt>
    <trkpt lat="43.17451" lon="-2.65276">
        <ele>108.8</ele>
        <time>2023-02-22T12:21:01.525Z</time>
    </trkpt>
    <trkpt lat="43.17452" lon="-2.65265">
        <ele>109.0</ele>
        <time>2023-02-22T12:21:07.341Z</time>
    </trkpt>
    <trkpt lat="43.17453" lon="-2.65245">
        <ele>109.1</ele>
        <time>2023-02-22T12:21:18.617Z</time>
    </trkpt>
    <trkpt lat="43.17453" lon="-2.65195">
        <ele>107.4</ele>
        <time>2023-02-22T12:21:48.103Z</time>
    </trkpt>
    <trkpt lat="43.17453" lon="-2.6519">
        <ele>107.2</ele>
        <time>2023-02-22T12:21:51.229Z</time>
    </trkpt>
    <trkpt lat="43.17452" lon="-2.65179">
        <ele>106.8</ele>
        <time>2023-02-22T12:21:58.535Z</time>
    </trkpt>
    <trkpt lat="43.17452" lon="-2.65172">
        <ele>106.4</ele>
        <time>2023-02-22T12:22:03.370Z</time>
    </trkpt>
    <trkpt lat="43.17451" lon="-2.65167">
        <ele>106.3</ele>
        <time>2023-02-22T12:22:06.860Z</time>
    </trkpt>
    <trkpt lat="43.1745" lon="-2.6516">
        <ele>106.1</ele>
        <time>2023-02-22T12:22:11.691Z</time>
    </trkpt>
    <trkpt lat="43.17448" lon="-2.65152">
        <ele>105.8</ele>
        <time>2023-02-22T12:22:17.475Z</time>
    </trkpt>
    <trkpt lat="43.17445" lon="-2.65144">
        <ele>105.5</ele>
        <time>2023-02-22T12:22:23.898Z</time>
    </trkpt>
    <trkpt lat="43.17383" lon="-2.64993">
        <ele>107.7</ele>
        <time>2023-02-22T12:24:31.694Z</time>
    </trkpt>
    <trkpt lat="43.17343" lon="-2.64894">
        <ele>104.9</ele>
        <time>2023-02-22T12:25:55.070Z</time>
    </trkpt>
    <trkpt lat="43.17335" lon="-2.64875">
        <ele>105.8</ele>
        <time>2023-02-22T12:26:10.695Z</time>
    </trkpt>
    <trkpt lat="43.17317" lon="-2.64834">
        <ele>103.6</ele>
        <time>2023-02-22T12:26:46.128Z</time>
    </trkpt>
    <trkpt lat="43.17309" lon="-2.64817">
        <ele>102.6</ele>
        <time>2023-02-22T12:27:01.621Z</time>
    </trkpt>
    <trkpt lat="43.17303" lon="-2.64807">
        <ele>102.4</ele>
        <time>2023-02-22T12:27:11.835Z</time>
    </trkpt>
    <trkpt lat="43.17295" lon="-2.64796">
        <ele>102.1</ele>
        <time>2023-02-22T12:27:24.408Z</time>
    </trkpt>
    <trkpt lat="43.17284" lon="-2.64782">
        <ele>102.7</ele>
        <time>2023-02-22T12:27:41.200Z</time>
    </trkpt>
    <trkpt lat="43.17265" lon="-2.64761">
        <ele>104.2</ele>
        <time>2023-02-22T12:28:08.577Z</time>
    </trkpt>
    <trkpt lat="43.172651" lon="-2.647608">
        <ele>104.2</ele>
        <time>2023-02-22T12:28:08.779Z</time>
    </trkpt>
    <trkpt lat="43.17168" lon="-2.64648">
        <ele>108.6</ele>
        <time>2023-02-22T12:30:43.033Z</time>
    </trkpt>
    <trkpt lat="43.17109" lon="-2.64582">
        <ele>110.0</ele>
        <time>2023-02-22T12:32:16.913Z</time>
    </trkpt>
    <trkpt lat="43.17087" lon="-2.64555">
        <ele>109.9</ele>
        <time>2023-02-22T12:32:53.982Z</time>
    </trkpt>
    <trkpt lat="43.17055" lon="-2.64516">
        <ele>111.6</ele>
        <time>2023-02-22T12:33:46.543Z</time>
    </trkpt>
    <trkpt lat="43.17049" lon="-2.64509">
        <ele>111.7</ele>
        <time>2023-02-22T12:33:56.198Z</time>
    </trkpt>
    <trkpt lat="43.17045" lon="-2.64504">
        <ele>111.6</ele>
        <time>2023-02-22T12:34:02.798Z</time>
    </trkpt>
    <trkpt lat="43.17041" lon="-2.64498">
        <ele>111.6</ele>
        <time>2023-02-22T12:34:10.050Z</time>
    </trkpt>
    <trkpt lat="43.1704" lon="-2.64498">
        <ele>111.6</ele>
        <time>2023-02-22T12:34:11.284Z</time>
    </trkpt>
    <trkpt lat="43.17024" lon="-2.64479">
        <ele>111.3</ele>
        <time>2023-02-22T12:34:37.611Z</time>
    </trkpt>
    <trkpt lat="43.170242" lon="-2.644786">
        <ele>111.4</ele>
        <time>2023-02-22T12:34:38.053Z</time>
    </trkpt>
    <trkpt lat="43.17016" lon="-2.64465">
        <ele>110.9</ele>
        <time>2023-02-22T12:34:54.271Z</time>
    </trkpt>
    <trkpt lat="43.17013" lon="-2.64458">
        <ele>110.6</ele>
        <time>2023-02-22T12:35:01.785Z</time>
    </trkpt>
    <trkpt lat="43.17011" lon="-2.64453">
        <ele>110.4</ele>
        <time>2023-02-22T12:35:07.083Z</time>
    </trkpt>
    <trkpt lat="43.17009" lon="-2.64445">
        <ele>110.2</ele>
        <time>2023-02-22T12:35:15.116Z</time>
    </trkpt>
    <trkpt lat="43.170045" lon="-2.644341">
        <ele>109.9</ele>
        <time>2023-02-22T12:35:27.029Z</time>
    </trkpt>
    <trkpt lat="43.170007" lon="-2.644327">
        <ele>109.6</ele>
        <time>2023-02-22T12:35:32.159Z</time>
    </trkpt>
    <trkpt lat="43.169934" lon="-2.644432">
        <ele>109.4</ele>
        <time>2023-02-22T12:35:45.972Z</time>
    </trkpt>
    <trkpt lat="43.169877" lon="-2.644544">
        <ele>109.2</ele>
        <time>2023-02-22T12:35:58.972Z</time>
    </trkpt>
    <trkpt lat="43.169805" lon="-2.644671">
        <ele>109.1</ele>
        <time>2023-02-22T12:36:14.281Z</time>
    </trkpt>
    <trkpt lat="43.169803" lon="-2.644673">
        <ele>109.1</ele>
        <time>2023-02-22T12:36:14.603Z</time>
    </trkpt>
    <trkpt lat="43.169741" lon="-2.644768">
        <ele>109.2</ele>
        <time>2023-02-22T12:36:26.731Z</time>
    </trkpt>
    <trkpt lat="43.169685" lon="-2.644752">
        <ele>109.2</ele>
        <time>2023-02-22T12:36:34.128Z</time>
    </trkpt>
    <trkpt lat="43.169603" lon="-2.644703">
        <ele>109.2</ele>
        <time>2023-02-22T12:36:45.635Z</time>
    </trkpt>
    <trkpt lat="43.169551" lon="-2.644662">
        <ele>109.3</ele>
        <time>2023-02-22T12:36:53.395Z</time>
    </trkpt>
    <trkpt lat="43.169429" lon="-2.644578">
        <ele>110.1</ele>
        <time>2023-02-22T12:37:11.087Z</time>
    </trkpt>
    <trkpt lat="43.169326" lon="-2.644489">
        <ele>110.9</ele>
        <time>2023-02-22T12:37:26.903Z</time>
    </trkpt>
    <trkpt lat="43.169261" lon="-2.644399">
        <ele>111.6</ele>
        <time>2023-02-22T12:37:38.964Z</time>
    </trkpt>
    <trkpt lat="43.16923" lon="-2.644233">
        <ele>112.1</ele>
        <time>2023-02-22T12:37:55.326Z</time>
    </trkpt>
    <trkpt lat="43.169267" lon="-2.644111">
        <ele>112.0</ele>
        <time>2023-02-22T12:38:07.946Z</time>
    </trkpt>
    <trkpt lat="43.169303" lon="-2.643927">
        <ele>111.9</ele>
        <time>2023-02-22T12:38:26.132Z</time>
    </trkpt>
    <trkpt lat="43.16928" lon="-2.643775">
        <ele>112.3</ele>
        <time>2023-02-22T12:38:40.948Z</time>
    </trkpt>
    <trkpt lat="43.169218" lon="-2.643702">
        <ele>112.8</ele>
        <time>2023-02-22T12:38:51.686Z</time>
    </trkpt>
    <trkpt lat="43.169107" lon="-2.64359">
        <ele>113.6</ele>
        <time>2023-02-22T12:39:10.585Z</time>
    </trkpt>
    <trkpt lat="43.168998" lon="-2.643498">
        <ele>114.2</ele>
        <time>2023-02-22T12:39:28.056Z</time>
    </trkpt>
    <trkpt lat="43.168931" lon="-2.643414">
        <ele>114.4</ele>
        <time>2023-02-22T12:39:40.310Z</time>
    </trkpt>
    <trkpt lat="43.16894" lon="-2.643286">
        <ele>114.0</ele>
        <time>2023-02-22T12:39:52.919Z</time>
    </trkpt>
    <trkpt lat="43.168988" lon="-2.643123">
        <ele>113.4</ele>
        <time>2023-02-22T12:40:09.797Z</time>
    </trkpt>
    <trkpt lat="43.169002" lon="-2.642951">
        <ele>112.6</ele>
        <time>2023-02-22T12:40:26.083Z</time>
    </trkpt>
    <trkpt lat="43.168957" lon="-2.642821">
        <ele>112.0</ele>
        <time>2023-02-22T12:40:39.644Z</time>
    </trkpt>
    <trkpt lat="43.16893" lon="-2.64271">
        <ele>111.5</ele>
        <time>2023-02-22T12:40:50.685Z</time>
    </trkpt>
    <trkpt lat="43.16892" lon="-2.64263">
        <ele>111.1</ele>
        <time>2023-02-22T12:40:58.309Z</time>
    </trkpt>
    <trkpt lat="43.16891" lon="-2.64254">
        <ele>110.6</ele>
        <time>2023-02-22T12:41:06.753Z</time>
    </trkpt>
    <trkpt lat="43.1689" lon="-2.64248">
        <ele>110.4</ele>
        <time>2023-02-22T12:41:12.482Z</time>
    </trkpt>
    <trkpt lat="43.168855" lon="-2.642227">
        <ele>109.6</ele>
        <time>2023-02-22T12:41:36.120Z</time>
    </trkpt>
    <trkpt lat="43.16886" lon="-2.64204">
        <ele>109.3</ele>
        <time>2023-02-22T12:41:52.093Z</time>
    </trkpt>
    <trkpt lat="43.168787" lon="-2.641811">
        <ele>109.4</ele>
        <time>2023-02-22T12:42:10.232Z</time>
    </trkpt>
    </trkseg>
</trk>
</gpx>